Darstellungsparameter: Aktuell verwendete Einstellungen:
Skalierung der Graphiken ... ?
xyx+y,   Skalierungsfaktor:      Skalierung: Modus: x, Faktor: 1
Darstellungszeitraum ... ?
Vom - - bis: - -   Zeitraum: 29.12.2020 - 04.03.2021
Min/Max/Avg-Anzeige ... ?
Zeige MMA aktuell
Zeige MMA Monat
Zeige MMA alles
Zeige --A aktuell
Zeige --A Monat
Zeige --A alles
Keine MMA-Anzeige
MMA:
Minimum Maximum Average (ber die Originaldaten)
MMA-Basis: 29.12.2020 - 04.03.2021
Quicknavigation für Darstellung... ?
Tage:      1T, 2T, 3T, 5T -1T -2T -3T -5T +1T +2T +3T +5T
Wochen: 1W, 2W, 3W -1W -2W -3W +1W +2W +3W
Monate: 1M, 3M, 6M -1M -3M -6M +1M +3M +6M
Jahre:    1J, 3J, 5J, 10J -1J -3J -5J -10J +1J +3J +5J +10J
Nutze für die Darstellung ... ?
Originaldaten oder ...
Mittelwerte Minima Maxima auf...
Stundenbasis Tagesbasis Wochenbasis
Monatsbasis Jahresbasis      Datenbasis: Mittelwerte auf Stundenbasis
Darstellen als:
Statistik (Auto) Statistik J:M      Darstellung:
Zur Graphik,    zurück zur Übersicht aller Sensoren.
 
Tabellarische Datenbersicht: ?
 
Sensor: Nr:Datum:Temp:Abs-Feuchte:Windchill:Wind:
Aussen-T/F 1 29-12-2020 00:00:00 2.58333 C 5.59 g/m*3 2.58 C 1.875 km/h
2 29-12-2020 01:00:00 2.6 C 5.56 g/m*3 2.6 C 0.8 km/h
3 29-12-2020 02:00:00 2.58333 C 5.55 g/m*3 2.58 C 3.33333 km/h
4 29-12-2020 03:00:00 1.86667 C 5.26 g/m*3 1.87 C 2.4 km/h
5 29-12-2020 04:00:00 2 C 5.35 g/m*3 2 C 0 km/h
6 29-12-2020 05:00:00 2.39167 C 5.48 g/m*3 2.39 C 0 km/h
7 29-12-2020 06:00:00 2.38333 C 5.5 g/m*3 2.38 C 1.73333 km/h
8 29-12-2020 07:00:00 2.64167 C 5.63 g/m*3 1.26 C 5.35833 km/h
9 29-12-2020 08:00:00 2.93333 C 5.74 g/m*3 2.93 C 4.28333 km/h
10 29-12-2020 09:00:00 3.2 C 5.83 g/m*3 0.96 C 8.2 km/h
11 29-12-2020 10:00:00 3.53333 C 5.9 g/m*3 2.08 C 5.89167 km/h
12 29-12-2020 11:00:00 4.03333 C 5.9 g/m*3 0.75 C 13.83333 km/h
13 29-12-2020 12:00:00 4.78333 C 5.98 g/m*3 1.42 C 15.43333 km/h
14 29-12-2020 13:00:00 5.00833 C 5.91 g/m*3 1.88 C 14.23333 km/h
15 29-12-2020 14:00:00 5 C 5.9 g/m*3 3.05 C 8.31667 km/h
16 29-12-2020 15:00:00 4.90833 C 6.05 g/m*3 4.91 C 2.81667 km/h
17 29-12-2020 16:00:00 4.35833 C 5.97 g/m*3 4.36 C 2.4 km/h
18 29-12-2020 17:00:00 3.85 C 5.85 g/m*3 3.85 C 1.73333 km/h
19 29-12-2020 18:00:00 3.13333 C 5.56 g/m*3 3.13 C 1.86667 km/h
20 29-12-2020 19:00:00 2.00833 C 5.22 g/m*3 2.01 C 2.66667 km/h
21 29-12-2020 20:00:00 1.83333 C 5.24 g/m*3 1.83 C 0 km/h
22 29-12-2020 21:00:00 1.65833 C 5.17 g/m*3 1.66 C 0.4 km/h
23 29-12-2020 22:00:00 1.16667 C 5.03 g/m*3 1.17 C 1.2 km/h
24 29-12-2020 23:00:00 1.39167 C 5.12 g/m*3 1.39 C 0 km/h
25 30-12-2020 00:00:00 1.925 C 5.32 g/m*3 1.93 C 0 km/h
Sensor: Nr:Datum:Temp:Abs-Feuchte:Windchill:Wind:
Aussen-T/F 26 30-12-2020 01:00:00 2.025 C 5.34 g/m*3 2.03 C 0 km/h
27 30-12-2020 02:00:00 2.26667 C 5.47 g/m*3 2.27 C 0 km/h
28 30-12-2020 03:00:00 2.54167 C 5.59 g/m*3 2.54 C 0 km/h
29 30-12-2020 04:00:00 2.61667 C 5.62 g/m*3 2.62 C 0 km/h
30 30-12-2020 05:00:00 2.78333 C 5.68 g/m*3 2.78 C 0 km/h
31 30-12-2020 06:00:00 2.96667 C 5.75 g/m*3 2.97 C 0 km/h
32 30-12-2020 07:00:00 3.45833 C 5.95 g/m*3 3.46 C 1.6 km/h
33 30-12-2020 08:00:00 3.625 C 6.01 g/m*3 3.63 C 1.2 km/h
34 30-12-2020 09:00:00 3.78333 C 6.08 g/m*3 3.78 C 1.6 km/h
35 30-12-2020 10:00:00 4.2 C 6.25 g/m*3 4.2 C 2.26667 km/h
36 30-12-2020 11:00:00 4.45 C 6.26 g/m*3 2.95 C 6.43333 km/h
37 30-12-2020 12:00:00 4.75 C 6.18 g/m*3 2.65 C 8.74167 km/h
38 30-12-2020 13:00:00 5.06667 C 5.93 g/m*3 3.27 C 7.78333 km/h
39 30-12-2020 14:00:00 5.675 C 6.07 g/m*3 5.68 C 4.54167 km/h
40 30-12-2020 15:00:00 5.79167 C 5.95 g/m*3 4.23 C 7.375 km/h
41 30-12-2020 16:00:00 5.475 C 5.92 g/m*3 3.68 C 8.05 km/h
42 30-12-2020 17:00:00 4.9 C 5.72 g/m*3 3.22 C 7.24167 km/h
43 30-12-2020 18:00:00 4.65 C 5.7 g/m*3 2.37 C 9.41667 km/h
44 30-12-2020 19:00:00 4.34167 C 5.71 g/m*3 3.2 C 5.35 km/h
45 30-12-2020 20:00:00 4.28333 C 5.7 g/m*3 2.89 C 6.04167 km/h
46 30-12-2020 21:00:00 4.23333 C 5.7 g/m*3 4.23 C 4.55 km/h
47 30-12-2020 22:00:00 4 C 5.66 g/m*3 4 C 2 km/h
48 30-12-2020 23:00:00 4.01667 C 5.7 g/m*3 4.02 C 1.875 km/h
49 31-12-2020 00:00:00 4.03333 C 5.68 g/m*3 4.03 C 1.46667 km/h
50 31-12-2020 01:00:00 3.43333 C 5.53 g/m*3 3.43 C 0.66667 km/h
Sensor: Nr:Datum:Temp:Abs-Feuchte:Windchill:Wind:
Aussen-T/F 51 31-12-2020 02:00:00 3.175 C 5.51 g/m*3 3.18 C 1.46667 km/h
52 31-12-2020 03:00:00 2.84167 C 5.4 g/m*3 2.84 C 0.66667 km/h
53 31-12-2020 04:00:00 2.78333 C 5.39 g/m*3 2.78 C 0 km/h
54 31-12-2020 05:00:00 2.80833 C 5.44 g/m*3 2.81 C 0.26667 km/h
55 31-12-2020 06:00:00 2.95833 C 5.56 g/m*3 2.96 C 0 km/h
56 31-12-2020 07:00:00 2.79167 C 5.51 g/m*3 2.79 C 1.06667 km/h
57 31-12-2020 08:00:00 2.69167 C 5.47 g/m*3 2.69 C 2.53333 km/h
58 31-12-2020 09:00:00 2.68333 C 5.48 g/m*3 2.68 C 1.06667 km/h
59 31-12-2020 10:00:00 3.16667 C 5.66 g/m*3 3.17 C 0.93333 km/h
60 31-12-2020 11:00:00 3.75833 C 5.72 g/m*3 3.76 C 3.6 km/h
61 31-12-2020 12:00:00 4.05 C 5.77 g/m*3 4.05 C 3.21667 km/h
62 31-12-2020 13:00:00 3.79167 C 5.75 g/m*3 3.79 C 1.2 km/h
63 31-12-2020 14:00:00 3.85833 C 5.82 g/m*3 3.86 C 0.53333 km/h
64 31-12-2020 15:00:00 3.59167 C 5.71 g/m*3 3.59 C 0.66667 km/h
65 31-12-2020 16:00:00 3 C 5.56 g/m*3 3 C 0.26667 km/h
66 31-12-2020 17:00:00 2.73333 C 5.52 g/m*3 2.73 C 0.13333 km/h
67 31-12-2020 18:00:00 2.71667 C 5.54 g/m*3 2.72 C 0 km/h
68 31-12-2020 19:00:00 2.625 C 5.51 g/m*3 2.63 C 0.26667 km/h
69 31-12-2020 20:00:00 2.38333 C 5.42 g/m*3 2.38 C 0 km/h
70 31-12-2020 21:00:00 2.225 C 5.4 g/m*3 2.23 C 0 km/h
71 31-12-2020 22:00:00 2.15 C 5.37 g/m*3 2.15 C 0 km/h
72 31-12-2020 23:00:00 1.26667 C 5.02 g/m*3 1.27 C 0 km/h
73 01-01-2021 00:00:00 1.1 C 5.01 g/m*3 1.1 C 0 km/h
74 01-01-2021 01:00:00 1.16667 C 5.04 g/m*3 1.17 C 0 km/h
75 01-01-2021 02:00:00 1.425 C 5.13 g/m*3 1.43 C 0 km/h
Sensor: Nr:Datum:Temp:Abs-Feuchte:Windchill:Wind:
Aussen-T/F 76 01-01-2021 03:00:00 1.725 C 5.25 g/m*3 1.73 C 0.13333 km/h
77 01-01-2021 04:00:00 1.88333 C 5.35 g/m*3 1.88 C 1.46667 km/h
78 01-01-2021 05:00:00 2.05833 C 5.41 g/m*3 2.06 C 0.53333 km/h
79 01-01-2021 06:00:00 2.24167 C 5.48 g/m*3 2.24 C 0 km/h
80 01-01-2021 07:00:00 2.425 C 5.55 g/m*3 2.42 C 0.26667 km/h
81 01-01-2021 08:00:00 2.5 C 5.58 g/m*3 2.5 C 0.26667 km/h
82 01-01-2021 09:00:00 2.55 C 5.59 g/m*3 2.55 C 0 km/h
83 01-01-2021 10:00:00 2.73333 C 5.66 g/m*3 2.73 C 0 km/h
84 01-01-2021 11:00:00 2.99167 C 5.76 g/m*3 2.99 C 2.53333 km/h
85 01-01-2021 12:00:00 2.95 C 5.75 g/m*3 2.95 C 2 km/h
86 01-01-2021 13:00:00 3.025 C 5.72 g/m*3 3.03 C 2 km/h
87 01-01-2021 14:00:00 3.075 C 5.74 g/m*3 3.08 C 0.53333 km/h
88 01-01-2021 15:00:00 3.13333 C 5.76 g/m*3 3.13 C 1.2 km/h
89 01-01-2021 16:00:00 2.9 C 5.67 g/m*3 2.9 C 0.8 km/h
90 01-01-2021 17:00:00 2.68333 C 5.59 g/m*3 2.68 C 0 km/h
91 01-01-2021 18:00:00 2.525 C 5.53 g/m*3 2.53 C 0 km/h
92 01-01-2021 19:00:00 1.80833 C 5.27 g/m*3 1.81 C 0 km/h
93 01-01-2021 20:00:00 1.26667 C 5.07 g/m*3 1.27 C 0 km/h
94 01-01-2021 21:00:00 0.8 C 4.91 g/m*3 0.8 C 0 km/h
95 01-01-2021 22:00:00 0.60833 C 4.88 g/m*3 0.61 C 0 km/h
96 01-01-2021 23:00:00 0.76667 C 4.95 g/m*3 0.77 C 0 km/h
97 02-01-2021 00:00:00 0.80833 C 4.97 g/m*3 0.81 C 1.2 km/h
98 02-01-2021 01:00:00 0.75 C 4.95 g/m*3 0.75 C 1.33333 km/h
99 02-01-2021 02:00:00 0.75833 C 4.95 g/m*3 0.76 C 0 km/h
100 02-01-2021 03:00:00 0.675 C 4.92 g/m*3 0.68 C 0.8 km/h
Sensor: Nr:Datum:Temp:Abs-Feuchte:Windchill:Wind:
Aussen-T/F 101 02-01-2021 04:00:00 0.375 C 4.82 g/m*3 0.38 C 2 km/h
102 02-01-2021 05:00:00 0.325 C 4.81 g/m*3 0.33 C 3.06667 km/h
103 02-01-2021 06:00:00 0.425 C 4.84 g/m*3 0.43 C 3.46667 km/h
104 02-01-2021 07:00:00 0.40833 C 4.83 g/m*3 0.41 C 3.86667 km/h
105 02-01-2021 08:00:00 0.4 C 4.83 g/m*3 0.4 C 1.86667 km/h
106 02-01-2021 09:00:00 0.53333 C 4.88 g/m*3 0.53 C 1.06667 km/h
107 02-01-2021 10:00:00 0.81667 C 4.97 g/m*3 0.82 C 0.8 km/h
108 02-01-2021 11:00:00 1.3 C 5.13 g/m*3 1.3 C 0.4 km/h
109 02-01-2021 12:00:00 1.85 C 5.27 g/m*3 1.85 C 0.8 km/h
110 02-01-2021 13:00:00 2.23333 C 5.33 g/m*3 2.23 C 1.33333 km/h
111 02-01-2021 14:00:00 2.425 C 5.38 g/m*3 2.42 C 0.66667 km/h
112 02-01-2021 15:00:00 2.65 C 5.46 g/m*3 2.65 C 1.6 km/h
113 02-01-2021 16:00:00 2.525 C 5.41 g/m*3 2.53 C 0.4 km/h
114 02-01-2021 17:00:00 2.18333 C 5.34 g/m*3 2.18 C 0.4 km/h
115 02-01-2021 18:00:00 2.03333 C 5.29 g/m*3 2.03 C 0 km/h
116 02-01-2021 19:00:00 1.95833 C 5.3 g/m*3 1.96 C 0 km/h
117 02-01-2021 20:00:00 1.9 C 5.3 g/m*3 1.9 C 0 km/h
118 02-01-2021 21:00:00 1.89167 C 5.3 g/m*3 1.89 C 0 km/h
119 02-01-2021 22:00:00 1.8 C 5.26 g/m*3 1.8 C 0 km/h
120 02-01-2021 23:00:00 1.8 C 5.26 g/m*3 1.8 C 0 km/h
121 03-01-2021 00:00:00 1.88333 C 5.29 g/m*3 1.88 C 0 km/h
122 03-01-2021 01:00:00 1.8 C 5.26 g/m*3 1.8 C 3.20833 km/h
123 03-01-2021 02:00:00 1.74167 C 5.18 g/m*3 1.74 C 1.73333 km/h
124 03-01-2021 03:00:00 2.04167 C 5.04 g/m*3 2.04 C 2.53333 km/h
125 03-01-2021 04:00:00 2.26667 C 5.06 g/m*3 2.27 C 2.66667 km/h
Sensor: Nr:Datum:Temp:Abs-Feuchte:Windchill:Wind:
Aussen-T/F 126 03-01-2021 05:00:00 2.11667 C 5.09 g/m*3 2.12 C 0.66667 km/h
127 03-01-2021 06:00:00 2.05833 C 5.1 g/m*3 2.06 C 0.93333 km/h
128 03-01-2021 07:00:00 1.99167 C 5.03 g/m*3 1.99 C 1.46667 km/h
129 03-01-2021 08:00:00 2.29167 C 4.99 g/m*3 2.29 C 1.73333 km/h
130 03-01-2021 09:00:00 2.375 C 5.09 g/m*3 2.38 C 0 km/h
131 03-01-2021 10:00:00 2.60833 C 5.12 g/m*3 2.61 C 1.60833 km/h
132 03-01-2021 11:00:00 3.08333 C 5.17 g/m*3 3.08 C 3.875 km/h
133 03-01-2021 12:00:00 3.375 C 5.2 g/m*3 1.53 C 6.975 km/h
134 03-01-2021 13:00:00 3.49167 C 5.26 g/m*3 3.49 C 3.74167 km/h
135 03-01-2021 14:00:00 3.71667 C 5.34 g/m*3 2.39 C 5.61667 km/h
136 03-01-2021 15:00:00 3.75 C 5.42 g/m*3 3.75 C 3.2 km/h
137 03-01-2021 16:00:00 3.51667 C 5.43 g/m*3 3.52 C 4.00833 km/h
138 03-01-2021 17:00:00 3.25833 C 5.43 g/m*3 3.26 C 0.93333 km/h
139 03-01-2021 18:00:00 2.925 C 5.43 g/m*3 2.93 C 0.26667 km/h
140 03-01-2021 19:00:00 2.66667 C 5.41 g/m*3 2.67 C 0.53333 km/h
141 03-01-2021 20:00:00 2.51667 C 5.41 g/m*3 2.52 C 0.13333 km/h
142 03-01-2021 21:00:00 2.46667 C 5.39 g/m*3 2.47 C 0.4 km/h
143 03-01-2021 22:00:00 2.375 C 5.36 g/m*3 2.38 C 0 km/h
144 03-01-2021 23:00:00 2.3 C 5.34 g/m*3 2.3 C 0 km/h
145 04-01-2021 00:00:00 2.225 C 5.36 g/m*3 2.23 C 0 km/h
146 04-01-2021 01:00:00 2.06667 C 5.3 g/m*3 2.07 C 0 km/h
147 04-01-2021 02:00:00 1.85833 C 5.23 g/m*3 1.86 C 0.13333 km/h
148 04-01-2021 03:00:00 1.78333 C 5.2 g/m*3 1.78 C 0.13333 km/h
149 04-01-2021 04:00:00 1.63333 C 5.19 g/m*3 1.63 C 0 km/h
150 04-01-2021 05:00:00 1.39167 C 5.1 g/m*3 1.39 C 0 km/h
Sensor: Nr:Datum:Temp:Abs-Feuchte:Windchill:Wind:
Aussen-T/F 151 04-01-2021 06:00:00 1.06667 C 4.99 g/m*3 1.07 C 0 km/h
152 04-01-2021 07:00:00 0.90833 C 4.95 g/m*3 0.91 C 0 km/h
153 04-01-2021 08:00:00 0.96667 C 4.97 g/m*3 0.97 C 0 km/h
154 04-01-2021 09:00:00 1.14167 C 5.03 g/m*3 1.14 C 0 km/h
155 04-01-2021 10:00:00 1.31667 C 5.09 g/m*3 1.32 C 0.13333 km/h
156 04-01-2021 11:00:00 1.60833 C 5.23 g/m*3 1.61 C 0 km/h
157 04-01-2021 12:00:00 1.81667 C 5.32 g/m*3 1.82 C 0.13333 km/h
158 04-01-2021 13:00:00 1.975 C 5.38 g/m*3 1.98 C 0.53333 km/h
159 04-01-2021 14:00:00 2.025 C 5.4 g/m*3 2.03 C 0.26667 km/h
160 04-01-2021 15:00:00 2 C 5.39 g/m*3 2 C 0.26667 km/h
161 04-01-2021 16:00:00 1.93333 C 5.37 g/m*3 1.93 C 0 km/h
162 04-01-2021 17:00:00 1.80833 C 5.32 g/m*3 1.81 C 0 km/h
163 04-01-2021 18:00:00 1.8 C 5.32 g/m*3 1.8 C 0.66667 km/h
164 04-01-2021 19:00:00 1.8 C 5.32 g/m*3 1.8 C 1.06667 km/h
165 04-01-2021 20:00:00 1.75 C 5.3 g/m*3 1.75 C 0 km/h
166 04-01-2021 21:00:00 1.70833 C 5.28 g/m*3 1.71 C 0 km/h
167 04-01-2021 22:00:00 1.775 C 5.31 g/m*3 1.78 C 0 km/h
168 04-01-2021 23:00:00 1.8 C 5.32 g/m*3 1.8 C 0.53333 km/h
169 05-01-2021 00:00:00 1.84167 C 5.33 g/m*3 1.84 C 0.4 km/h
170 05-01-2021 01:00:00 1.9 C 5.35 g/m*3 1.9 C 0.4 km/h
171 05-01-2021 02:00:00 1.9 C 5.35 g/m*3 1.9 C 0.53333 km/h
172 05-01-2021 03:00:00 1.99167 C 5.38 g/m*3 1.99 C 0.13333 km/h
173 05-01-2021 04:00:00 2.1 C 5.37 g/m*3 2.1 C 0 km/h
174 05-01-2021 05:00:00 2.08333 C 5.36 g/m*3 2.08 C 0 km/h
175 05-01-2021 06:00:00 2.1 C 5.37 g/m*3 2.1 C 0 km/h
Sensor: Nr:Datum:Temp:Abs-Feuchte:Windchill:Wind:
Aussen-T/F 176 05-01-2021 07:00:00 2.08333 C 5.36 g/m*3 2.08 C 0.26667 km/h
177 05-01-2021 08:00:00 2.05 C 5.35 g/m*3 2.05 C 0.13333 km/h
178 05-01-2021 09:00:00 2.15 C 5.39 g/m*3 2.15 C 0.13333 km/h
179 05-01-2021 10:00:00 2.34167 C 5.46 g/m*3 2.34 C 0.93333 km/h
180 05-01-2021 11:00:00 2.65833 C 5.49 g/m*3 2.66 C 1.2 km/h
181 05-01-2021 12:00:00 2.88333 C 5.48 g/m*3 2.88 C 4.54167 km/h
182 05-01-2021 13:00:00 3.03333 C 5.54 g/m*3 3.03 C 0.26667 km/h
183 05-01-2021 14:00:00 3.25 C 5.62 g/m*3 3.25 C 0 km/h
184 05-01-2021 15:00:00 3.3 C 5.64 g/m*3 3.3 C 0 km/h
185 05-01-2021 16:00:00 3.20833 C 5.61 g/m*3 3.21 C 0 km/h
186 05-01-2021 17:00:00 3.05 C 5.59 g/m*3 3.05 C 0 km/h
187 05-01-2021 18:00:00 2.90833 C 5.56 g/m*3 2.91 C 0 km/h
188 05-01-2021 19:00:00 2.9 C 5.61 g/m*3 2.9 C 0 km/h
189 05-01-2021 20:00:00 2.9 C 5.61 g/m*3 2.9 C 0 km/h
190 05-01-2021 21:00:00 2.9 C 5.61 g/m*3 2.9 C 0 km/h
191 05-01-2021 22:00:00 2.68333 C 5.52 g/m*3 2.68 C 0 km/h
192 05-01-2021 23:00:00 2.36667 C 5.43 g/m*3 2.37 C 0.26667 km/h
193 06-01-2021 00:00:00 2.66667 C 5.54 g/m*3 2.67 C 0 km/h
194 06-01-2021 01:00:00 2.69167 C 5.55 g/m*3 2.69 C 4.425 km/h
195 06-01-2021 02:00:00 2.35 C 5.41 g/m*3 2.35 C 2.8 km/h
196 06-01-2021 03:00:00 2.15 C 5.37 g/m*3 2.15 C 0.13333 km/h
197 06-01-2021 04:00:00 1.68333 C 5.2 g/m*3 1.68 C 0 km/h
198 06-01-2021 05:00:00 1.95833 C 5.32 g/m*3 1.96 C 0.26667 km/h
199 06-01-2021 06:00:00 2.14167 C 5.39 g/m*3 2.14 C 0 km/h
200 06-01-2021 07:00:00 2.2 C 5.44 g/m*3 2.2 C 1.2 km/h
Sensor: Nr:Datum:Temp:Abs-Feuchte:Windchill:Wind:
Aussen-T/F 201 06-01-2021 08:00:00 2.15 C 5.41 g/m*3 2.15 C 0 km/h
202 06-01-2021 09:00:00 2.24167 C 5.47 g/m*3 2.24 C 0 km/h
203 06-01-2021 10:00:00 2.65833 C 5.64 g/m*3 2.66 C 0.13333 km/h
204 06-01-2021 11:00:00 3.175 C 5.83 g/m*3 3.18 C 0.4 km/h
205 06-01-2021 12:00:00 3.525 C 5.9 g/m*3 3.53 C 1.86667 km/h
206 06-01-2021 13:00:00 3.76667 C 5.85 g/m*3 2.25 C 6.15 km/h
207 06-01-2021 14:00:00 3.8 C 5.72 g/m*3 2.38 C 5.9 km/h
208 06-01-2021 15:00:00 3.875 C 5.74 g/m*3 3.88 C 2.93333 km/h
209 06-01-2021 16:00:00 3.65833 C 5.67 g/m*3 3.66 C 4.66667 km/h
210 06-01-2021 17:00:00 3.325 C 5.59 g/m*3 3.33 C 4.00833 km/h
211 06-01-2021 18:00:00 2.99167 C 5.47 g/m*3 2.99 C 4.26667 km/h
212 06-01-2021 19:00:00 2.8 C 5.45 g/m*3 2.8 C 4.4 km/h
213 06-01-2021 20:00:00 2.75 C 5.38 g/m*3 1.44 C 5.225 km/h
214 06-01-2021 21:00:00 2.5 C 5.28 g/m*3 2.5 C 4.55 km/h
215 06-01-2021 22:00:00 2.35 C 5.16 g/m*3 0.98 C 5.23333 km/h
216 06-01-2021 23:00:00 2.19167 C 5.07 g/m*3 2.19 C 3.475 km/h
217 07-01-2021 00:00:00 2.09167 C 4.99 g/m*3 -0.05 C 7.24167 km/h
218 07-01-2021 01:00:00 1.83333 C 4.98 g/m*3 1.83 C 1.33333 km/h
219 07-01-2021 02:00:00 1.45833 C 4.94 g/m*3 1.46 C 0.66667 km/h
220 07-01-2021 03:00:00 1.25833 C 4.91 g/m*3 1.26 C 0 km/h
221 07-01-2021 04:00:00 1.21667 C 4.93 g/m*3 1.22 C 0 km/h
222 07-01-2021 05:00:00 1.34167 C 4.98 g/m*3 1.34 C 1.06667 km/h
223 07-01-2021 06:00:00 1.5 C 4.97 g/m*3 1.5 C 3.06667 km/h
224 07-01-2021 07:00:00 1.73333 C 4.98 g/m*3 0.17 C 5.475 km/h
225 07-01-2021 08:00:00 1.73333 C 4.94 g/m*3 -0.14 C 6.29167 km/h
Sensor: Nr:Datum:Temp:Abs-Feuchte:Windchill:Wind:
Aussen-T/F 226 07-01-2021 09:00:00 1.9 C 4.95 g/m*3 0.3 C 5.625 km/h
227 07-01-2021 10:00:00 2.18333 C 5.04 g/m*3 2.18 C 4.00833 km/h
228 07-01-2021 11:00:00 2.7 C 5.13 g/m*3 0.79 C 6.83333 km/h
229 07-01-2021 12:00:00 2.71667 C 5.17 g/m*3 0.07 C 9.41667 km/h
230 07-01-2021 13:00:00 2.68333 C 5.38 g/m*3 0.51 C 7.65833 km/h
231 07-01-2021 14:00:00 2.84167 C 5.42 g/m*3 0.83 C 7.24167 km/h
232 07-01-2021 15:00:00 2.45 C 5.33 g/m*3 0.45 C 6.975 km/h
233 07-01-2021 16:00:00 2.4 C 5.31 g/m*3 0.1 C 7.91667 km/h
234 07-01-2021 17:00:00 2.36667 C 5.33 g/m*3 0.49 C 6.575 km/h
235 07-01-2021 18:00:00 2.375 C 5.35 g/m*3 0.03 C 8.05833 km/h
236 07-01-2021 19:00:00 2.2 C 5.33 g/m*3 0.08 C 7.23333 km/h
237 07-01-2021 20:00:00 2.1 C 5.31 g/m*3 0.19 C 6.56667 km/h
238 07-01-2021 21:00:00 1.89167 C 5.19 g/m*3 -0.58 C 8.2 km/h
239 07-01-2021 22:00:00 1.9 C 5.16 g/m*3 -0.72 C 8.73333 km/h
240 07-01-2021 23:00:00 1.93333 C 5.14 g/m*3 -0.75 C 9.00833 km/h
241 08-01-2021 00:00:00 1.73333 C 5.12 g/m*3 -1.26 C 10.08333 km/h
242 08-01-2021 01:00:00 1.63333 C 5.13 g/m*3 -0.72 C 7.65833 km/h
243 08-01-2021 02:00:00 1.76667 C 5.15 g/m*3 -0.39 C 7.125 km/h
244 08-01-2021 03:00:00 1.8 C 5.15 g/m*3 -1.02 C 9.425 km/h
245 08-01-2021 04:00:00 1.84167 C 5.17 g/m*3 -0.93 C 9.28333 km/h
246 08-01-2021 05:00:00 1.84167 C 5.21 g/m*3 -0.79 C 8.75833 km/h
247 08-01-2021 06:00:00 1.79167 C 5.2 g/m*3 -0.22 C 6.69167 km/h
248 08-01-2021 07:00:00 1.71667 C 5.19 g/m*3 1.72 C 4.54167 km/h
249 08-01-2021 08:00:00 1.6 C 5.19 g/m*3 1.6 C 4.94167 km/h
250 08-01-2021 09:00:00 1.63333 C 5.2 g/m*3 1.63 C 4.26667 km/h
Sensor: Nr:Datum:Temp:Abs-Feuchte:Windchill:Wind:
Aussen-T/F 251 08-01-2021 10:00:00 1.89167 C 5.3 g/m*3 1.89 C 2.66667 km/h
252 08-01-2021 11:00:00 2.2 C 5.4 g/m*3 2.2 C 2.66667 km/h
253 08-01-2021 12:00:00 2.525 C 5.47 g/m*3 2.53 C 2.66667 km/h
254 08-01-2021 13:00:00 2.50833 C 5.46 g/m*3 2.51 C 0.53333 km/h
255 08-01-2021 14:00:00 2.54167 C 5.47 g/m*3 2.54 C 2.53333 km/h
256 08-01-2021 15:00:00 2.475 C 5.41 g/m*3 2.48 C 2.26667 km/h
257 08-01-2021 16:00:00 2.33333 C 5.36 g/m*3 2.33 C 1.86667 km/h
258 08-01-2021 17:00:00 2.14167 C 5.33 g/m*3 2.14 C 0.8 km/h
259 08-01-2021 18:00:00 2.1 C 5.34 g/m*3 2.1 C 1.06667 km/h
260 08-01-2021 19:00:00 2.15833 C 5.39 g/m*3 2.16 C 0 km/h
261 08-01-2021 20:00:00 2.15833 C 5.39 g/m*3 2.16 C 0 km/h
262 08-01-2021 21:00:00 2.08333 C 5.36 g/m*3 2.08 C 1.73333 km/h
263 08-01-2021 22:00:00 1.64167 C 5.18 g/m*3 1.64 C 1.86667 km/h
264 08-01-2021 23:00:00 0.81667 C 4.89 g/m*3 0.82 C 0.66667 km/h
265 09-01-2021 00:00:00 0.69167 C 4.88 g/m*3 0.69 C 1.86667 km/h
266 09-01-2021 01:00:00 0.89167 C 4.95 g/m*3 0.89 C 0.8 km/h
267 09-01-2021 02:00:00 1 C 4.98 g/m*3 1 C 0.13333 km/h
268 09-01-2021 03:00:00 1.10833 C 5.02 g/m*3 1.11 C 0.66667 km/h
269 09-01-2021 04:00:00 0.85 C 4.95 g/m*3 0.85 C 0.93333 km/h
270 09-01-2021 05:00:00 0.9 C 5 g/m*3 0.9 C 0.26667 km/h
271 09-01-2021 06:00:00 0.94167 C 5.01 g/m*3 0.94 C 0.66667 km/h
272 09-01-2021 07:00:00 1.025 C 5.04 g/m*3 1.02 C 0.53333 km/h
273 09-01-2021 08:00:00 1.06667 C 5.05 g/m*3 1.07 C 0.8 km/h
274 09-01-2021 09:00:00 1.01667 C 4.99 g/m*3 1.02 C 0.26667 km/h
275 09-01-2021 10:00:00 0.91667 C 4.98 g/m*3 0.92 C 0.4 km/h
Sensor: Nr:Datum:Temp:Abs-Feuchte:Windchill:Wind:
Aussen-T/F 276 09-01-2021 11:00:00 1.10833 C 5.03 g/m*3 1.11 C 1.60833 km/h
277 09-01-2021 12:00:00 1.34167 C 5.07 g/m*3 1.34 C 2.41667 km/h
278 09-01-2021 13:00:00 2.15833 C 5.1 g/m*3 2.16 C 3.35 km/h
279 09-01-2021 14:00:00 2.875 C 5.14 g/m*3 2.88 C 3.2 km/h
280 09-01-2021 15:00:00 2.925 C 5.03 g/m*3 2.93 C 4.13333 km/h
281 09-01-2021 16:00:00 2.5 C 5.05 g/m*3 2.5 C 1.33333 km/h
282 09-01-2021 17:00:00 1.64167 C 4.93 g/m*3 1.64 C 0.4 km/h
283 09-01-2021 18:00:00 1.3 C 4.91 g/m*3 1.3 C 0 km/h
284 09-01-2021 19:00:00 1.26667 C 4.96 g/m*3 1.27 C 0 km/h
285 09-01-2021 20:00:00 1.16667 C 4.93 g/m*3 1.17 C 0 km/h
286 09-01-2021 21:00:00 1.09167 C 4.94 g/m*3 1.09 C 0 km/h
287 09-01-2021 22:00:00 1.19167 C 5 g/m*3 1.19 C 0 km/h
288 09-01-2021 23:00:00 1.25 C 5.02 g/m*3 1.25 C 0 km/h
289 10-01-2021 00:00:00 0.96667 C 4.92 g/m*3 0.97 C 0 km/h
290 10-01-2021 01:00:00 0.83333 C 4.9 g/m*3 0.83 C 0 km/h
291 10-01-2021 02:00:00 0.9 C 4.95 g/m*3 0.9 C 0 km/h
292 10-01-2021 03:00:00 0.95833 C 4.97 g/m*3 0.96 C 0 km/h
293 10-01-2021 04:00:00 0.88333 C 4.94 g/m*3 0.88 C 0 km/h
294 10-01-2021 05:00:00 0.7 C 4.88 g/m*3 0.7 C 0 km/h
295 10-01-2021 06:00:00 0.71667 C 4.89 g/m*3 0.72 C 0 km/h
296 10-01-2021 07:00:00 0.84167 C 4.93 g/m*3 0.84 C 0 km/h
297 10-01-2021 08:00:00 0.70833 C 4.88 g/m*3 0.71 C 0 km/h
298 10-01-2021 09:00:00 0.775 C 4.91 g/m*3 0.78 C 0 km/h
299 10-01-2021 10:00:00 1.24167 C 5.08 g/m*3 1.24 C 0 km/h
300 10-01-2021 11:00:00 1.775 C 5.22 g/m*3 1.78 C 0.8 km/h
Sensor: Nr:Datum:Temp:Abs-Feuchte:Windchill:Wind:
Aussen-T/F 301 10-01-2021 12:00:00 2.325 C 5.21 g/m*3 2.33 C 1.86667 km/h
302 10-01-2021 13:00:00 2.88333 C 5.12 g/m*3 2.88 C 1.33333 km/h
303 10-01-2021 14:00:00 3.21667 C 4.99 g/m*3 3.22 C 1.46667 km/h
304 10-01-2021 15:00:00 3.325 C 4.9 g/m*3 3.33 C 0.4 km/h
305 10-01-2021 16:00:00 2.80833 C 5.01 g/m*3 2.81 C 0.93333 km/h
306 10-01-2021 17:00:00 0.91667 C 4.55 g/m*3 0.92 C 4.26667 km/h
307 10-01-2021 18:00:00 -0.45833 C 4.28 g/m*3 -0.46 C 1.2 km/h
308 10-01-2021 19:00:00 -1.075 C 4.17 g/m*3 -1.08 C 0 km/h
309 10-01-2021 20:00:00 -1.65833 C 4.04 g/m*3 -1.66 C 0 km/h
310 10-01-2021 21:00:00 -2.08333 C 3.94 g/m*3 -2.08 C 0 km/h
311 10-01-2021 22:00:00 -2.35833 C 3.9 g/m*3 -2.36 C 0 km/h
312 10-01-2021 23:00:00 -2.70833 C 3.81 g/m*3 -2.71 C 0.13333 km/h
313 11-01-2021 00:00:00 -2.975 C 3.74 g/m*3 -2.98 C 0.13333 km/h
314 11-01-2021 01:00:00 -3.30833 C 3.65 g/m*3 -3.31 C 0.13333 km/h
315 11-01-2021 02:00:00 -2.94167 C 3.77 g/m*3 -2.94 C 0.13333 km/h
316 11-01-2021 03:00:00 -3.30833 C 3.65 g/m*3 -3.31 C 0 km/h
317 11-01-2021 04:00:00 -3.59167 C 3.58 g/m*3 -3.59 C 0 km/h
318 11-01-2021 05:00:00 -3.86667 C 3.51 g/m*3 -3.87 C 0 km/h
319 11-01-2021 06:00:00 -4.125 C 3.46 g/m*3 -4.13 C 0 km/h
320 11-01-2021 07:00:00 -3.925 C 3.53 g/m*3 -3.93 C 0.66667 km/h
321 11-01-2021 08:00:00 -3.36667 C 3.67 g/m*3 -3.37 C 1.2 km/h
322 11-01-2021 09:00:00 -2.6 C 3.88 g/m*3 -2.6 C 0.93333 km/h
323 11-01-2021 10:00:00 -1.30833 C 4.18 g/m*3 -3.24 C 5.35 km/h
324 11-01-2021 11:00:00 0.08333 C 4.32 g/m*3 -2.66 C 8.05 km/h
325 11-01-2021 12:00:00 1.01667 C 4.35 g/m*3 -2.32 C 10.88333 km/h
Sensor: Nr:Datum:Temp:Abs-Feuchte:Windchill:Wind:
Aussen-T/F 326 11-01-2021 13:00:00 1.825 C 4.43 g/m*3 -1.22 C 10.35 km/h
327 11-01-2021 14:00:00 2.26667 C 4.55 g/m*3 0.07 C 7.525 km/h
328 11-01-2021 15:00:00 2.375 C 4.68 g/m*3 2.38 C 3.74167 km/h
329 11-01-2021 16:00:00 2.33333 C 4.86 g/m*3 2.33 C 0.53333 km/h
330 11-01-2021 17:00:00 1.79167 C 4.85 g/m*3 1.79 C 2 km/h
331 11-01-2021 18:00:00 1.66667 C 4.82 g/m*3 1.67 C 1.86667 km/h
332 11-01-2021 19:00:00 1.76667 C 4.82 g/m*3 1.77 C 3.34167 km/h
333 11-01-2021 20:00:00 2 C 4.88 g/m*3 2 C 4.14167 km/h
334 11-01-2021 21:00:00 2.325 C 4.93 g/m*3 0.9 C 5.35833 km/h
335 11-01-2021 22:00:00 2.49167 C 5.01 g/m*3 0.73 C 6.3 km/h
336 11-01-2021 23:00:00 2.8 C 5.11 g/m*3 0.07 C 9.81667 km/h
337 12-01-2021 00:00:00 3 C 5.24 g/m*3 -0.24 C 12.35833 km/h
338 12-01-2021 01:00:00 3.26667 C 5.38 g/m*3 -0.65 C 16.63333 km/h
339 12-01-2021 02:00:00 3.34167 C 5.42 g/m*3 -0.23 C 14.63333 km/h
340 12-01-2021 03:00:00 3.51667 C 5.54 g/m*3 -0.02 C 14.63333 km/h
341 12-01-2021 04:00:00 3.725 C 5.59 g/m*3 -0.47 C 19.45 km/h
342 12-01-2021 05:00:00 3.875 C 5.63 g/m*3 -0.78 C 23.6 km/h
343 12-01-2021 06:00:00 3.85833 C 5.67 g/m*3 -0.74 C 23.04167 km/h
344 12-01-2021 07:00:00 3.79167 C 5.66 g/m*3 -0.78 C 22.64167 km/h
345 12-01-2021 08:00:00 3.95833 C 5.66 g/m*3 -0.91 C 25.86667 km/h
346 12-01-2021 09:00:00 4.14167 C 5.69 g/m*3 -0.76 C 26.69167 km/h
347 12-01-2021 10:00:00 4.41667 C 5.8 g/m*3 -0.2 C 24.66667 km/h
348 12-01-2021 11:00:00 4.68333 C 5.96 g/m*3 0.69 C 19.83333 km/h
349 12-01-2021 12:00:00 5.05 C 6.15 g/m*3 1.35 C 18.23333 km/h
350 12-01-2021 13:00:00 5.225 C 6.3 g/m*3 1.82 C 16.36667 km/h
Sensor: Nr:Datum:Temp:Abs-Feuchte:Windchill:Wind:
Aussen-T/F 351 12-01-2021 14:00:00 5.18333 C 6.47 g/m*3 2.75 C 10.61667 km/h
352 12-01-2021 15:00:00 5.40833 C 6.63 g/m*3 2.86 C 11.41667 km/h
353 12-01-2021 16:00:00 5.45 C 6.58 g/m*3 3.42 C 9.00833 km/h
354 12-01-2021 17:00:00 4.56667 C 6.12 g/m*3 2.88 C 7.10833 km/h
355 12-01-2021 18:00:00 3.25833 C 5.65 g/m*3 3.26 C 4.95 km/h
356 12-01-2021 19:00:00 2.45833 C 5.41 g/m*3 2.46 C 4.80833 km/h
357 12-01-2021 20:00:00 2.75 C 5.47 g/m*3 1.5 C 5.075 km/h
358 12-01-2021 21:00:00 3.05 C 5.45 g/m*3 1.61 C 5.64167 km/h
359 12-01-2021 22:00:00 2.96667 C 5.38 g/m*3 2.97 C 3.46667 km/h
360 12-01-2021 23:00:00 2.14167 C 5.21 g/m*3 2.14 C 2.8 km/h
361 13-01-2021 00:00:00 1.93333 C 5.2 g/m*3 1.93 C 2.8 km/h
362 13-01-2021 01:00:00 1.59167 C 5.1 g/m*3 1.59 C 4.275 km/h
363 13-01-2021 02:00:00 1.7 C 5.1 g/m*3 -0.8 C 8.2 km/h
364 13-01-2021 03:00:00 1.73333 C 5 g/m*3 -0.92 C 8.75833 km/h
365 13-01-2021 04:00:00 1.63333 C 4.91 g/m*3 -0.96 C 8.475 km/h
366 13-01-2021 05:00:00 1.66667 C 4.89 g/m*3 -1.07 C 9.01667 km/h
367 13-01-2021 06:00:00 1.775 C 4.92 g/m*3 -1.04 C 9.39167 km/h
368 13-01-2021 07:00:00 1.91667 C 4.92 g/m*3 -0.92 C 9.56667 km/h
369 13-01-2021 08:00:00 1.75833 C 4.93 g/m*3 -0.61 C 7.78333 km/h
370 13-01-2021 09:00:00 1.31667 C 4.9 g/m*3 -1.66 C 9.69167 km/h
371 13-01-2021 10:00:00 1.94167 C 5.14 g/m*3 -0.63 C 8.61667 km/h
372 13-01-2021 11:00:00 2.95 C 5.35 g/m*3 0.04 C 10.75833 km/h
373 13-01-2021 12:00:00 3.74167 C 5.45 g/m*3 0.59 C 12.76667 km/h
374 13-01-2021 13:00:00 4.15833 C 5.43 g/m*3 1.3 C 11.68333 km/h
375 13-01-2021 14:00:00 4.63333 C 5.3 g/m*3 1.98 C 11.15833 km/h
Sensor: Nr:Datum:Temp:Abs-Feuchte:Windchill:Wind:
Aussen-T/F 376 13-01-2021 15:00:00 4.05833 C 5.12 g/m*3 1.37 C 10.76667 km/h
377 13-01-2021 16:00:00 2.99167 C 5.01 g/m*3 0.57 C 8.75833 km/h
378 13-01-2021 17:00:00 2.39167 C 4.96 g/m*3 0.71 C 6.04167 km/h
379 13-01-2021 18:00:00 1.91667 C 4.95 g/m*3 1.92 C 2.53333 km/h
380 13-01-2021 19:00:00 1.8 C 5 g/m*3 1.8 C 4.26667 km/h
381 13-01-2021 20:00:00 2.03333 C 5.12 g/m*3 2.03 C 4.4 km/h
382 13-01-2021 21:00:00 2.49167 C 5.21 g/m*3 0.5 C 6.98333 km/h
383 13-01-2021 22:00:00 3.39167 C 5.18 g/m*3 1.5 C 7.11667 km/h
384 13-01-2021 23:00:00 3.725 C 5.2 g/m*3 1.69 C 7.8 km/h
385 14-01-2021 00:00:00 4.10833 C 5.45 g/m*3 1.67 C 9.68333 km/h
386 14-01-2021 01:00:00 4.05 C 5.8 g/m*3 1.79 C 8.86667 km/h
387 14-01-2021 02:00:00 3.76667 C 5.77 g/m*3 1.71 C 7.925 km/h
388 14-01-2021 03:00:00 3.56667 C 5.52 g/m*3 2.01 C 6.175 km/h
389 14-01-2021 04:00:00 3.275 C 5.19 g/m*3 1.59 C 6.44167 km/h
390 14-01-2021 05:00:00 2.61667 C 4.71 g/m*3 2.62 C 3.74167 km/h
391 14-01-2021 06:00:00 2.05 C 4.72 g/m*3 2.05 C 0.66667 km/h
392 14-01-2021 07:00:00 1.51667 C 4.63 g/m*3 1.52 C 0.66667 km/h
393 14-01-2021 08:00:00 1.36667 C 4.61 g/m*3 1.37 C 0.93333 km/h
394 14-01-2021 09:00:00 1.375 C 4.72 g/m*3 1.38 C 0.13333 km/h
395 14-01-2021 10:00:00 1.90833 C 4.8 g/m*3 1.91 C 0.53333 km/h
396 14-01-2021 11:00:00 2.425 C 4.72 g/m*3 1.02 C 5.34167 km/h
397 14-01-2021 12:00:00 2.625 C 4.65 g/m*3 0.94 C 6.15 km/h
398 14-01-2021 13:00:00 2.95 C 4.69 g/m*3 1.26 C 6.3 km/h
399 14-01-2021 14:00:00 3.11667 C 4.67 g/m*3 3.12 C 3.33333 km/h
400 14-01-2021 15:00:00 3.09167 C 4.7 g/m*3 3.09 C 2.13333 km/h
Sensor: Nr:Datum:Temp:Abs-Feuchte:Windchill:Wind:
Aussen-T/F 401 14-01-2021 16:00:00 2.63333 C 4.77 g/m*3 2.63 C 0.13333 km/h
402 14-01-2021 17:00:00 1.36667 C 4.6 g/m*3 1.37 C 1.06667 km/h
403 14-01-2021 18:00:00 0.89167 C 4.53 g/m*3 0.89 C 1.73333 km/h
404 14-01-2021 19:00:00 0.275 C 4.42 g/m*3 0.28 C 1.06667 km/h
405 14-01-2021 20:00:00 0.15833 C 4.46 g/m*3 0.16 C 1.875 km/h
406 14-01-2021 21:00:00 0.08333 C 4.39 g/m*3 0.08 C 1.06667 km/h
407 14-01-2021 22:00:00 -0.375 C 4.25 g/m*3 -0.38 C 1.06667 km/h
408 14-01-2021 23:00:00 -0.70833 C 4.15 g/m*3 -0.71 C 2 km/h
409 15-01-2021 00:00:00 -1.05833 C 4.06 g/m*3 -1.06 C 0.8 km/h
410 15-01-2021 01:00:00 -1.55 C 3.96 g/m*3 -1.55 C 0.8 km/h
411 15-01-2021 02:00:00 -2.04167 C 3.82 g/m*3 -2.04 C 0.66667 km/h
412 15-01-2021 03:00:00 -2.425 C 3.77 g/m*3 -2.42 C 0.13333 km/h
413 15-01-2021 04:00:00 -2.26667 C 3.85 g/m*3 -2.27 C 0.4 km/h
414 15-01-2021 05:00:00 -1.65833 C 4 g/m*3 -1.66 C 0 km/h
415 15-01-2021 06:00:00 -1.16667 C 4.1 g/m*3 -1.17 C 0 km/h
416 15-01-2021 07:00:00 -0.81667 C 4.17 g/m*3 -0.82 C 0 km/h
417 15-01-2021 08:00:00 -0.66667 C 4.2 g/m*3 -0.67 C 0 km/h
418 15-01-2021 09:00:00 -0.28333 C 4.29 g/m*3 -0.28 C 0 km/h
419 15-01-2021 10:00:00 -0.18333 C 4.28 g/m*3 -0.18 C 0.4 km/h
420 15-01-2021 11:00:00 0.10833 C 4.17 g/m*3 0.11 C 4.14167 km/h
421 15-01-2021 12:00:00 2.05 C 4.29 g/m*3 -0.75 C 9.55 km/h
422 15-01-2021 13:00:00 2.35 C 4.43 g/m*3 -0.26 C 9.00833 km/h
423 15-01-2021 14:00:00 2.45 C 4.52 g/m*3 0.24 C 7.65 km/h
424 15-01-2021 15:00:00 2.55833 C 4.63 g/m*3 0.62 C 6.84167 km/h
425 15-01-2021 16:00:00 2.325 C 4.66 g/m*3 0.35 C 6.84167 km/h
Sensor: Nr:Datum:Temp:Abs-Feuchte:Windchill:Wind:
Aussen-T/F 426 15-01-2021 17:00:00 2 C 4.58 g/m*3 2 C 2.13333 km/h
427 15-01-2021 18:00:00 1.71667 C 4.58 g/m*3 1.72 C 3.34167 km/h
428 15-01-2021 19:00:00 1.51667 C 4.66 g/m*3 1.52 C 3.73333 km/h
429 15-01-2021 20:00:00 1.39167 C 4.62 g/m*3 1.39 C 4 km/h
430 15-01-2021 21:00:00 1.24167 C 4.6 g/m*3 1.24 C 3.75 km/h
431 15-01-2021 22:00:00 1.11667 C 4.55 g/m*3 1.12 C 3.74167 km/h
432 15-01-2021 23:00:00 1.075 C 4.59 g/m*3 1.08 C 4 km/h
433 16-01-2021 00:00:00 0.85833 C 4.49 g/m*3 0.86 C 2.40833 km/h
434 16-01-2021 01:00:00 0.9 C 4.14 g/m*3 -1.21 C 6.59167 km/h
435 16-01-2021 02:00:00 0.79167 C 4.05 g/m*3 0.79 C 4.4 km/h
436 16-01-2021 03:00:00 0.625 C 4.07 g/m*3 0.63 C 2.4 km/h
437 16-01-2021 04:00:00 0.28333 C 4.1 g/m*3 0.28 C 0.13333 km/h
438 16-01-2021 05:00:00 0.09167 C 4.16 g/m*3 0.09 C 0.93333 km/h
439 16-01-2021 06:00:00 0.14167 C 4.15 g/m*3 0.14 C 0.8 km/h
440 16-01-2021 07:00:00 -0.05 C 4.16 g/m*3 -0.05 C 0.13333 km/h
441 16-01-2021 08:00:00 -0.15 C 4.19 g/m*3 -0.15 C 0 km/h
442 16-01-2021 09:00:00 0.04167 C 4.24 g/m*3 0.04 C 0.4 km/h
443 16-01-2021 10:00:00 0.83333 C 4.19 g/m*3 0.83 C 2.53333 km/h
444 16-01-2021 11:00:00 1.28333 C 4.21 g/m*3 1.28 C 4.675 km/h
445 16-01-2021 12:00:00 1.55 C 4.13 g/m*3 -0.45 C 6.55833 km/h
446 16-01-2021 13:00:00 1.6 C 4.05 g/m*3 0.19 C 5.09167 km/h
447 16-01-2021 14:00:00 1.4 C 3.87 g/m*3 1.4 C 3.33333 km/h
448 16-01-2021 15:00:00 1.25833 C 3.79 g/m*3 1.26 C 4.01667 km/h
449 16-01-2021 16:00:00 0.84167 C 3.8 g/m*3 0.84 C 1.06667 km/h
450 16-01-2021 17:00:00 -0.04167 C 3.92 g/m*3 -0.04 C 0 km/h
Sensor: Nr:Datum:Temp:Abs-Feuchte:Windchill:Wind:
Aussen-T/F 451 16-01-2021 18:00:00 -0.38333 C 3.93 g/m*3 -0.38 C 0 km/h
452 16-01-2021 19:00:00 -0.18333 C 4.02 g/m*3 -0.18 C 0.4 km/h
453 16-01-2021 20:00:00 -0.00833 C 4.25 g/m*3 -0.01 C 0.93333 km/h
454 16-01-2021 21:00:00 -0.28333 C 4.37 g/m*3 -0.28 C 0.4 km/h
455 16-01-2021 22:00:00 -0.44167 C 4.39 g/m*3 -0.44 C 0.53333 km/h
456 16-01-2021 23:00:00 -0.68333 C 4.34 g/m*3 -0.68 C 0.26667 km/h
457 17-01-2021 00:00:00 -0.78333 C 4.31 g/m*3 -0.78 C 0 km/h
458 17-01-2021 01:00:00 -0.975 C 4.26 g/m*3 -0.98 C 0 km/h
459 17-01-2021 02:00:00 -1.16667 C 4.2 g/m*3 -1.17 C 0 km/h
460 17-01-2021 03:00:00 -1.2 C 4.19 g/m*3 -1.2 C 0 km/h
461 17-01-2021 04:00:00 -1.16667 C 4.24 g/m*3 -1.17 C 0 km/h
462 17-01-2021 05:00:00 -1.03333 C 4.28 g/m*3 -1.03 C 0 km/h
463 17-01-2021 06:00:00 -0.85833 C 4.34 g/m*3 -0.86 C 0.13333 km/h
464 17-01-2021 07:00:00 -0.75 C 4.37 g/m*3 -0.75 C 0 km/h
465 17-01-2021 08:00:00 -0.65833 C 4.4 g/m*3 -0.66 C 0 km/h
466 17-01-2021 09:00:00 -0.25 C 4.53 g/m*3 -0.25 C 0.53333 km/h
467 17-01-2021 10:00:00 0.23333 C 4.68 g/m*3 0.23 C 0.4 km/h
468 17-01-2021 11:00:00 0.68333 C 4.82 g/m*3 0.68 C 0 km/h
469 17-01-2021 12:00:00 1.075 C 4.94 g/m*3 1.08 C 0 km/h
470 17-01-2021 13:00:00 1.34167 C 5 g/m*3 1.34 C 2.26667 km/h
471 17-01-2021 14:00:00 1.39167 C 5.06 g/m*3 1.39 C 2.4 km/h
472 17-01-2021 15:00:00 1.6 C 5.14 g/m*3 1.6 C 0.13333 km/h
473 17-01-2021 16:00:00 1.50833 C 5.11 g/m*3 1.51 C 0.4 km/h
474 17-01-2021 17:00:00 1.58333 C 5.18 g/m*3 1.58 C 1.46667 km/h
475 17-01-2021 18:00:00 1.69167 C 5.22 g/m*3 1.69 C 2.4 km/h
Sensor: Nr:Datum:Temp:Abs-Feuchte:Windchill:Wind:
Aussen-T/F 476 17-01-2021 19:00:00 1.8 C 5.26 g/m*3 1.8 C 2.13333 km/h
477 17-01-2021 20:00:00 1.86667 C 5.29 g/m*3 1.87 C 2.66667 km/h
478 17-01-2021 21:00:00 1.95833 C 5.32 g/m*3 1.96 C 2.13333 km/h
479 17-01-2021 22:00:00 2.11667 C 5.41 g/m*3 2.12 C 1.06667 km/h
480 17-01-2021 23:00:00 2.275 C 5.49 g/m*3 2.28 C 2 km/h
481 18-01-2021 00:00:00 2.34167 C 5.52 g/m*3 2.34 C 3.06667 km/h
482 18-01-2021 01:00:00 2.3 C 5.5 g/m*3 2.3 C 2.93333 km/h
483 18-01-2021 02:00:00 2.43333 C 5.55 g/m*3 2.43 C 2.8 km/h
484 18-01-2021 03:00:00 2.58333 C 5.61 g/m*3 2.58 C 2.53333 km/h
485 18-01-2021 04:00:00 2.04167 C 5.41 g/m*3 2.04 C 2.53333 km/h
486 18-01-2021 05:00:00 2.30833 C 5.5 g/m*3 2.31 C 4.00833 km/h
487 18-01-2021 06:00:00 2.43333 C 5.55 g/m*3 0.18 C 7.79167 km/h
488 18-01-2021 07:00:00 2.475 C 5.55 g/m*3 -0.21 C 9.41667 km/h
489 18-01-2021 08:00:00 2.59167 C 5.53 g/m*3 -0.08 C 9.41667 km/h
490 18-01-2021 09:00:00 2.83333 C 5.59 g/m*3 -0.02 C 10.36667 km/h
491 18-01-2021 10:00:00 3.44167 C 5.73 g/m*3 0.66 C 10.625 km/h
492 18-01-2021 11:00:00 4.13333 C 5.9 g/m*3 1.63 C 9.96667 km/h
493 18-01-2021 12:00:00 4.75833 C 6.01 g/m*3 2 C 11.83333 km/h
494 18-01-2021 13:00:00 5.51667 C 6.11 g/m*3 2.57 C 13.83333 km/h
495 18-01-2021 14:00:00 5.68333 C 6.01 g/m*3 2.2 C 17.83333 km/h
496 18-01-2021 15:00:00 5.41667 C 5.87 g/m*3 2.45 C 13.83333 km/h
497 18-01-2021 16:00:00 5 C 5.74 g/m*3 2.42 C 11.15833 km/h
498 18-01-2021 17:00:00 4.525 C 5.69 g/m*3 2.04 C 10.225 km/h
499 18-01-2021 18:00:00 4.56667 C 5.73 g/m*3 1.27 C 14.63333 km/h
500 18-01-2021 19:00:00 4.76667 C 5.83 g/m*3 1.16 C 17.03333 km/h
Sensor: Nr:Datum:Temp:Abs-Feuchte:Windchill:Wind:
Aussen-T/F 501 18-01-2021 20:00:00 4.8 C 5.9 g/m*3 1.07 C 17.975 km/h
502 18-01-2021 21:00:00 4.85833 C 5.93 g/m*3 1.59 C 14.9 km/h
503 18-01-2021 22:00:00 4.80833 C 5.99 g/m*3 1.51 C 15.03333 km/h
504 18-01-2021 23:00:00 4.99167 C 6.07 g/m*3 1.44 C 17.03333 km/h
505 19-01-2021 00:00:00 5.14167 C 6.01 g/m*3 2.07 C 14.1 km/h
506 19-01-2021 01:00:00 5.01667 C 5.83 g/m*3 1.59 C 16.23333 km/h
507 19-01-2021 02:00:00 4.66667 C 5.64 g/m*3 1.53 C 13.83333 km/h
508 19-01-2021 03:00:00 4.475 C 5.55 g/m*3 3.25 C 5.64167 km/h
509 19-01-2021 04:00:00 4.21667 C 5.52 g/m*3 4.22 C 4.96667 km/h
510 19-01-2021 05:00:00 4.475 C 5.37 g/m*3 1.68 C 11.675 km/h
511 19-01-2021 06:00:00 5.19167 C 5.42 g/m*3 1.8 C 16.23333 km/h
512 19-01-2021 07:00:00 5.43333 C 5.55 g/m*3 1.67 C 19.56667 km/h
513 19-01-2021 08:00:00 5.43333 C 5.59 g/m*3 1.33 C 22.525 km/h
514 19-01-2021 09:00:00 5.31667 C 5.53 g/m*3 1.08 C 23.45 km/h
515 19-01-2021 10:00:00 5.175 C 5.59 g/m*3 0.54 C 27.08333 km/h
516 19-01-2021 11:00:00 4.40833 C 5.75 g/m*3 -0.45 C 27.09167 km/h
517 19-01-2021 12:00:00 4.79167 C 5.83 g/m*3 -0.25 C 30.325 km/h
518 19-01-2021 13:00:00 5.15833 C 5.99 g/m*3 0.52 C 27.09167 km/h
519 19-01-2021 14:00:00 5.58333 C 6.17 g/m*3 1.32 C 24.4 km/h
520 19-01-2021 15:00:00 6.05833 C 6.31 g/m*3 2.06 C 23.19167 km/h
521 19-01-2021 16:00:00 5.625 C 6.29 g/m*3 1.54 C 22.8 km/h
522 19-01-2021 17:00:00 5.38333 C 6.27 g/m*3 1.52 C 20.23333 km/h
523 19-01-2021 18:00:00 5.29167 C 6.21 g/m*3 1.52 C 19.30833 km/h
524 19-01-2021 19:00:00 5.55833 C 6.3 g/m*3 1.97 C 18.36667 km/h
525 19-01-2021 20:00:00 5.65 C 6.15 g/m*3 2.04 C 18.76667 km/h
Sensor: Nr:Datum:Temp:Abs-Feuchte:Windchill:Wind:
Aussen-T/F 526 19-01-2021 21:00:00 5.20833 C 5.8 g/m*3 2.64 C 11.3 km/h
527 19-01-2021 22:00:00 4.83333 C 5.53 g/m*3 2.99 C 7.79167 km/h
528 19-01-2021 23:00:00 5.175 C 5.24 g/m*3 3.15 C 8.74167 km/h
529 20-01-2021 00:00:00 4.66667 C 5.19 g/m*3 4.67 C 3.075 km/h
530 20-01-2021 01:00:00 4.38333 C 5.21 g/m*3 4.38 C 0.66667 km/h
531 20-01-2021 02:00:00 3.61667 C 5.19 g/m*3 3.62 C 2.13333 km/h
532 20-01-2021 03:00:00 3.74167 C 5.33 g/m*3 2.46 C 5.49167 km/h
533 20-01-2021 04:00:00 4.875 C 5.36 g/m*3 4.88 C 2.4 km/h
534 20-01-2021 05:00:00 5.08333 C 5.43 g/m*3 5.08 C 4 km/h
535 20-01-2021 06:00:00 4.875 C 5.62 g/m*3 4.88 C 3.6 km/h
536 20-01-2021 07:00:00 4.66667 C 5.61 g/m*3 4.67 C 3.34167 km/h
537 20-01-2021 08:00:00 4.34167 C 5.55 g/m*3 4.34 C 1.73333 km/h
538 20-01-2021 09:00:00 4.49167 C 5.58 g/m*3 4.49 C 1.46667 km/h
539 20-01-2021 10:00:00 5.175 C 5.81 g/m*3 5.18 C 0.13333 km/h
540 20-01-2021 11:00:00 6.25833 C 5.83 g/m*3 6.26 C 0.26667 km/h
541 20-01-2021 12:00:00 7.40833 C 6.11 g/m*3 7.41 C 1.33333 km/h
542 20-01-2021 13:00:00 8.38333 C 6.45 g/m*3 8.38 C 0.93333 km/h
543 20-01-2021 14:00:00 9.1 C 6.67 g/m*3 9.1 C 2.26667 km/h
544 20-01-2021 15:00:00 9.29167 C 6.87 g/m*3 9.29 C 3.21667 km/h
545 20-01-2021 16:00:00 8.63333 C 6.92 g/m*3 8.63 C 1.33333 km/h
546 20-01-2021 17:00:00 7.06667 C 6.66 g/m*3 7.07 C 3.33333 km/h
547 20-01-2021 18:00:00 6.74167 C 6.74 g/m*3 6.74 C 3.86667 km/h
548 20-01-2021 19:00:00 7.15833 C 6.8 g/m*3 7.16 C 4.26667 km/h
549 20-01-2021 20:00:00 7.30833 C 6.81 g/m*3 7.31 C 3.2 km/h
550 20-01-2021 21:00:00 7.275 C 6.76 g/m*3 7.28 C 3.875 km/h
Sensor: Nr:Datum:Temp:Abs-Feuchte:Windchill:Wind:
Aussen-T/F 551 20-01-2021 22:00:00 8.225 C 6.75 g/m*3 8.23 C 3.73333 km/h
552 20-01-2021 23:00:00 9.16667 C 6.73 g/m*3 8.4 C 6.43333 km/h
553 21-01-2021 00:00:00 9.10833 C 6.64 g/m*3 8.4 C 6.16667 km/h
554 21-01-2021 01:00:00 8.825 C 6.64 g/m*3 8.11 C 6.025 km/h
555 21-01-2021 02:00:00 9.94167 C 6.78 g/m*3 9.54 C 5.50833 km/h
556 21-01-2021 03:00:00 10.125 C 6.66 g/m*3 9.01 C 8.725 km/h
557 21-01-2021 04:00:00 11.25 C 6.64 g/m*3 11.25 C 13.28333 km/h
558 21-01-2021 05:00:00 11.38333 C 6.93 g/m*3 11.38 C 11.01667 km/h
559 21-01-2021 06:00:00 11.19167 C 7.09 g/m*3 11.19 C 9.39167 km/h
560 21-01-2021 07:00:00 11.21667 C 7.47 g/m*3 11.22 C 8.725 km/h
561 21-01-2021 08:00:00 9.81667 C 8.04 g/m*3 8.99 C 7.10833 km/h
562 21-01-2021 09:00:00 8.05833 C 7.43 g/m*3 6.2 C 10.60833 km/h
563 21-01-2021 10:00:00 6.74167 C 6.9 g/m*3 4.45 C 11.53333 km/h
564 21-01-2021 11:00:00 6.9 C 6.86 g/m*3 4.86 C 10.34167 km/h
565 21-01-2021 12:00:00 7.275 C 6.72 g/m*3 4.37 C 16.36667 km/h
566 21-01-2021 13:00:00 7.825 C 6.68 g/m*3 6.5 C 7.8 km/h
567 21-01-2021 14:00:00 8.35 C 6.69 g/m*3 6.72 C 9.66667 km/h
568 21-01-2021 15:00:00 8.7 C 6.52 g/m*3 7.22 C 9.25833 km/h
569 21-01-2021 16:00:00 8.45 C 6.56 g/m*3 8.45 C 2.80833 km/h
570 21-01-2021 17:00:00 7.96667 C 6.64 g/m*3 7.97 C 2.13333 km/h
571 21-01-2021 18:00:00 7.98333 C 6.89 g/m*3 7.98 C 2 km/h
572 21-01-2021 19:00:00 7.75 C 7.21 g/m*3 7.75 C 2.275 km/h
573 21-01-2021 20:00:00 7.53333 C 7.49 g/m*3 7.53 C 3.46667 km/h
574 21-01-2021 21:00:00 8.43333 C 8.09 g/m*3 7.22 C 7.78333 km/h
575 21-01-2021 22:00:00 9.69167 C 8.38 g/m*3 7.63 C 14.23333 km/h
Sensor: Nr:Datum:Temp:Abs-Feuchte:Windchill:Wind:
Aussen-T/F 576 21-01-2021 23:00:00 9.89167 C 8.33 g/m*3 7.66 C 15.975 km/h
577 22-01-2021 00:00:00 10.19167 C 8.21 g/m*3 7.95 C 16.775 km/h
578 22-01-2021 01:00:00 10.125 C 8.14 g/m*3 8.43 C 12.21667 km/h
579 22-01-2021 02:00:00 9.64167 C 8.03 g/m*3 8.26 C 9.675 km/h
580 22-01-2021 03:00:00 9.86667 C 8.08 g/m*3 7.67 C 15.7 km/h
581 22-01-2021 04:00:00 10.075 C 8.18 g/m*3 8.08 C 14.36667 km/h
582 22-01-2021 05:00:00 8.275 C 7.4 g/m*3 6.24 C 11.925 km/h
583 22-01-2021 06:00:00 6.05 C 6.73 g/m*3 6.05 C 2.13333 km/h
584 22-01-2021 07:00:00 5.09167 C 6.37 g/m*3 5.09 C 2.53333 km/h
585 22-01-2021 08:00:00 4.575 C 6.23 g/m*3 4.58 C 1.86667 km/h
586 22-01-2021 09:00:00 4.44167 C 6.22 g/m*3 4.44 C 2.8 km/h
587 22-01-2021 10:00:00 4.68333 C 6.32 g/m*3 4.68 C 1.86667 km/h
588 22-01-2021 11:00:00 5.06667 C 6.49 g/m*3 5.07 C 2.53333 km/h
589 22-01-2021 12:00:00 5.53333 C 6.63 g/m*3 5.53 C 2.53333 km/h
590 22-01-2021 13:00:00 5.96667 C 6.61 g/m*3 5.1 C 5.21667 km/h
591 22-01-2021 14:00:00 6.05 C 6.56 g/m*3 5.06 C 5.60833 km/h
592 22-01-2021 15:00:00 6.24167 C 6.55 g/m*3 6.24 C 2.13333 km/h
593 22-01-2021 16:00:00 5.76667 C 6.46 g/m*3 5.77 C 2.26667 km/h
594 22-01-2021 17:00:00 3.85 C 5.78 g/m*3 3.85 C 4.8 km/h
595 22-01-2021 18:00:00 2.825 C 5.5 g/m*3 2.83 C 0.26667 km/h
596 22-01-2021 19:00:00 2.71667 C 5.52 g/m*3 2.72 C 0 km/h
597 22-01-2021 20:00:00 2.55 C 5.48 g/m*3 2.55 C 0 km/h
598 22-01-2021 21:00:00 2.59167 C 5.54 g/m*3 2.59 C 0.66667 km/h
599 22-01-2021 22:00:00 2.64167 C 5.57 g/m*3 2.64 C 0.13333 km/h
600 22-01-2021 23:00:00 2.55833 C 5.54 g/m*3 2.56 C 0.53333 km/h
Sensor: Nr:Datum:Temp:Abs-Feuchte:Windchill:Wind:
Aussen-T/F 601 23-01-2021 00:00:00 2.5 C 5.52 g/m*3 2.5 C 1.46667 km/h
602 23-01-2021 01:00:00 2.49167 C 5.52 g/m*3 2.49 C 1.46667 km/h
603 23-01-2021 02:00:00 2.31667 C 5.45 g/m*3 2.32 C 1.6 km/h
604 23-01-2021 03:00:00 2.35 C 5.47 g/m*3 0.98 C 5.21667 km/h
605 23-01-2021 04:00:00 2.60833 C 5.56 g/m*3 0.42 C 7.66667 km/h
606 23-01-2021 05:00:00 3.00833 C 5.7 g/m*3 1.37 C 6.16667 km/h
607 23-01-2021 06:00:00 2.90833 C 5.63 g/m*3 2.91 C 2 km/h
608 23-01-2021 07:00:00 3.2 C 5.72 g/m*3 3.2 C 0.13333 km/h
609 23-01-2021 08:00:00 3.28333 C 5.78 g/m*3 3.28 C 1.46667 km/h
610 23-01-2021 09:00:00 3.73333 C 5.93 g/m*3 3.73 C 0.66667 km/h
611 23-01-2021 10:00:00 4 C 6.03 g/m*3 4 C 0.4 km/h
612 23-01-2021 11:00:00 4.85833 C 6.28 g/m*3 4.86 C 3.75 km/h
613 23-01-2021 12:00:00 5.35 C 6.21 g/m*3 4.03 C 6.29167 km/h
614 23-01-2021 13:00:00 5.96667 C 6.22 g/m*3 5.97 C 3.60833 km/h
615 23-01-2021 14:00:00 6.275 C 6.33 g/m*3 6.28 C 0.93333 km/h
616 23-01-2021 15:00:00 6.475 C 6.33 g/m*3 6.48 C 0.8 km/h
617 23-01-2021 16:00:00 6.09167 C 6.24 g/m*3 6.09 C 2.13333 km/h
618 23-01-2021 17:00:00 5.40833 C 6.13 g/m*3 5.41 C 0.8 km/h
619 23-01-2021 18:00:00 4.88333 C 6 g/m*3 4.88 C 1.73333 km/h
620 23-01-2021 19:00:00 4.59167 C 6.06 g/m*3 4.59 C 1.2 km/h
621 23-01-2021 20:00:00 4.2 C 6.01 g/m*3 4.2 C 0.4 km/h
622 23-01-2021 21:00:00 3.875 C 5.93 g/m*3 3.88 C 0.53333 km/h
623 23-01-2021 22:00:00 3.61667 C 5.89 g/m*3 3.62 C 1.73333 km/h
624 23-01-2021 23:00:00 3.56667 C 5.87 g/m*3 3.57 C 0.13333 km/h
625 24-01-2021 00:00:00 3.6 C 5.91 g/m*3 3.6 C 0 km/h
Sensor: Nr:Datum:Temp:Abs-Feuchte:Windchill:Wind:
Aussen-T/F 626 24-01-2021 01:00:00 3.39167 C 5.84 g/m*3 3.39 C 1.34167 km/h
627 24-01-2021 02:00:00 2.28333 C 5.39 g/m*3 2.28 C 3.86667 km/h
628 24-01-2021 03:00:00 2.16667 C 5.39 g/m*3 -0.36 C 8.59167 km/h
629 24-01-2021 04:00:00 2.09167 C 5.23 g/m*3 -1.58 C 13.56667 km/h
630 24-01-2021 05:00:00 2.21667 C 5.19 g/m*3 -1.3 C 12.9 km/h
631 24-01-2021 06:00:00 2.29167 C 5.2 g/m*3 -1.69 C 15.56667 km/h
632 24-01-2021 07:00:00 2.075 C 5.17 g/m*3 -1.28 C 11.96667 km/h
633 24-01-2021 08:00:00 1.84167 C 5.16 g/m*3 -1.17 C 10.23333 km/h
634 24-01-2021 09:00:00 1.83333 C 5.21 g/m*3 -1.08 C 9.825 km/h
635 24-01-2021 10:00:00 2.33333 C 5.4 g/m*3 0.14 C 7.525 km/h
636 24-01-2021 11:00:00 2.68333 C 5.51 g/m*3 1.1 C 5.9 km/h
637 24-01-2021 12:00:00 2.95833 C 5.53 g/m*3 0.02 C 10.89167 km/h
638 24-01-2021 13:00:00 3.65833 C 5.51 g/m*3 0.67 C 11.825 km/h
639 24-01-2021 14:00:00 3.85 C 5.41 g/m*3 0.62 C 13.29167 km/h
640 24-01-2021 15:00:00 3.78333 C 5.23 g/m*3 1.25 C 9.81667 km/h
641 24-01-2021 16:00:00 3.29167 C 5.06 g/m*3 1.11 C 8.05833 km/h
642 24-01-2021 17:00:00 2.06667 C 4.74 g/m*3 -0.37 C 8.19167 km/h
643 24-01-2021 18:00:00 0.875 C 4.55 g/m*3 -0.81 C 5.49167 km/h
644 24-01-2021 19:00:00 0.075 C 4.47 g/m*3 0.08 C 0.93333 km/h
645 24-01-2021 20:00:00 -0.125 C 4.48 g/m*3 -0.13 C 0.13333 km/h
646 24-01-2021 21:00:00 0.03333 C 4.56 g/m*3 0.03 C 0.8 km/h
647 24-01-2021 22:00:00 0.5 C 4.64 g/m*3 0.5 C 3.2 km/h
648 24-01-2021 23:00:00 1.275 C 4.67 g/m*3 1.27 C 3.86667 km/h
649 25-01-2021 00:00:00 1.225 C 4.7 g/m*3 1.23 C 2.40833 km/h
650 25-01-2021 01:00:00 0.85 C 4.75 g/m*3 0.85 C 1.33333 km/h
Sensor: Nr:Datum:Temp:Abs-Feuchte:Windchill:Wind:
Aussen-T/F 651 25-01-2021 02:00:00 0.88333 C 4.79 g/m*3 0.88 C 2.4 km/h
652 25-01-2021 03:00:00 0.86667 C 4.76 g/m*3 0.87 C 4.28333 km/h
653 25-01-2021 04:00:00 1.03333 C 4.81 g/m*3 -1.2 C 6.98333 km/h
654 25-01-2021 05:00:00 1.2 C 4.85 g/m*3 1.2 C 2 km/h
655 25-01-2021 06:00:00 1.05833 C 4.84 g/m*3 1.06 C 0 km/h
656 25-01-2021 07:00:00 0.9 C 4.83 g/m*3 0.9 C 0 km/h
657 25-01-2021 08:00:00 0.94167 C 4.86 g/m*3 0.94 C 0 km/h
658 25-01-2021 09:00:00 1.15 C 4.95 g/m*3 1.15 C 0 km/h
659 25-01-2021 10:00:00 1.53333 C 5.11 g/m*3 1.53 C 0 km/h
660 25-01-2021 11:00:00 1.9 C 5.24 g/m*3 1.9 C 0.13333 km/h
661 25-01-2021 12:00:00 2.25833 C 5.37 g/m*3 2.26 C 0.66667 km/h
662 25-01-2021 13:00:00 2.20833 C 5.34 g/m*3 2.21 C 4.41667 km/h
663 25-01-2021 14:00:00 2.16667 C 5.24 g/m*3 0.35 C 6.30833 km/h
664 25-01-2021 15:00:00 2.13333 C 5.23 g/m*3 0.79 C 5.09167 km/h
665 25-01-2021 16:00:00 2.1 C 5.2 g/m*3 0.7 C 5.21667 km/h
666 25-01-2021 17:00:00 2.09167 C 5.2 g/m*3 2.09 C 2.13333 km/h
667 25-01-2021 18:00:00 1.45 C 5 g/m*3 1.45 C 1.46667 km/h
668 25-01-2021 19:00:00 1.175 C 4.94 g/m*3 1.18 C 1.86667 km/h
669 25-01-2021 20:00:00 0.54167 C 4.73 g/m*3 0.54 C 4.8 km/h
670 25-01-2021 21:00:00 0.43333 C 4.68 g/m*3 -1.43 C 5.75 km/h
671 25-01-2021 22:00:00 0.63333 C 4.63 g/m*3 -1.75 C 7.25 km/h
672 25-01-2021 23:00:00 1.33333 C 4.73 g/m*3 -1.74 C 10.08333 km/h
673 26-01-2021 00:00:00 1.7 C 4.8 g/m*3 -1.79 C 12.23333 km/h
674 26-01-2021 01:00:00 1.75 C 4.83 g/m*3 -1.89 C 13.03333 km/h
675 26-01-2021 02:00:00 1.86667 C 4.89 g/m*3 -2.03 C 14.5 km/h
Sensor: Nr:Datum:Temp:Abs-Feuchte:Windchill:Wind:
Aussen-T/F 676 26-01-2021 03:00:00 2.06667 C 4.94 g/m*3 -1.35 C 12.23333 km/h
677 26-01-2021 04:00:00 2.35833 C 5.03 g/m*3 -1.3 C 13.83333 km/h
678 26-01-2021 05:00:00 2.85 C 5.16 g/m*3 -1 C 15.56667 km/h
679 26-01-2021 06:00:00 3.175 C 5.24 g/m*3 -0.53 C 15.16667 km/h
680 26-01-2021 07:00:00 3.39167 C 5.25 g/m*3 -0.28 C 15.3 km/h
681 26-01-2021 08:00:00 3.8 C 5.21 g/m*3 0.24 C 15.16667 km/h
682 26-01-2021 09:00:00 3.80833 C 5.26 g/m*3 0.43 C 14.1 km/h
683 26-01-2021 10:00:00 4.23333 C 5.33 g/m*3 1.14 C 13.03333 km/h
684 26-01-2021 11:00:00 4.58333 C 5.35 g/m*3 1.21 C 15.16667 km/h
685 26-01-2021 12:00:00 4.88333 C 5.44 g/m*3 2.02 C 12.5 km/h
686 26-01-2021 13:00:00 5.15 C 5.46 g/m*3 2.19 C 13.43333 km/h
687 26-01-2021 14:00:00 5.00833 C 5.42 g/m*3 1.86 C 14.36667 km/h
688 26-01-2021 15:00:00 4.71667 C 5.32 g/m*3 1.75 C 12.9 km/h
689 26-01-2021 16:00:00 4.55833 C 5.26 g/m*3 1.65 C 12.36667 km/h
690 26-01-2021 17:00:00 4.10833 C 5.03 g/m*3 0.78 C 14.23333 km/h
691 26-01-2021 18:00:00 3.275 C 4.85 g/m*3 1.09 C 8.075 km/h
692 26-01-2021 19:00:00 2.08333 C 4.77 g/m*3 0.41 C 5.9 km/h
693 26-01-2021 20:00:00 1.83333 C 4.86 g/m*3 -0.43 C 7.5 km/h
694 26-01-2021 21:00:00 2.65833 C 5.07 g/m*3 -0.16 C 10.09167 km/h
695 26-01-2021 22:00:00 2.75 C 5.08 g/m*3 -0.35 C 11.43333 km/h
696 26-01-2021 23:00:00 2.31667 C 4.94 g/m*3 -0.03 C 8.05 km/h
697 27-01-2021 00:00:00 2.03333 C 4.85 g/m*3 2.03 C 2.40833 km/h
698 27-01-2021 01:00:00 1.38333 C 4.71 g/m*3 1.38 C 2.4 km/h
699 27-01-2021 02:00:00 1.01667 C 4.65 g/m*3 1.02 C 1.46667 km/h
700 27-01-2021 03:00:00 1.05 C 4.72 g/m*3 1.05 C 0.8 km/h
Sensor: Nr:Datum:Temp:Abs-Feuchte:Windchill:Wind:
Aussen-T/F 701 27-01-2021 04:00:00 1.41667 C 4.78 g/m*3 -0.03 C 5.1 km/h
702 27-01-2021 05:00:00 1.79167 C 4.83 g/m*3 1.79 C 4.95833 km/h
703 27-01-2021 06:00:00 1.61667 C 4.9 g/m*3 1.62 C 2.13333 km/h
704 27-01-2021 07:00:00 1.3 C 4.9 g/m*3 1.3 C 0 km/h
705 27-01-2021 08:00:00 1.3 C 4.98 g/m*3 1.3 C 1.86667 km/h
706 27-01-2021 09:00:00 1.55 C 5.07 g/m*3 1.55 C 2.53333 km/h
707 27-01-2021 10:00:00 1.68333 C 5.14 g/m*3 1.68 C 0.26667 km/h
708 27-01-2021 11:00:00 2.2 C 5.35 g/m*3 0.64 C 5.64167 km/h
709 27-01-2021 12:00:00 2.59167 C 5.44 g/m*3 -0.11 C 9.55 km/h
710 27-01-2021 13:00:00 2.78333 C 5.51 g/m*3 0.37 C 8.59167 km/h
711 27-01-2021 14:00:00 2.75833 C 5.5 g/m*3 0.19 C 9.15 km/h
712 27-01-2021 15:00:00 2.80833 C 5.56 g/m*3 -0.58 C 12.9 km/h
713 27-01-2021 16:00:00 2.86667 C 5.6 g/m*3 -0.56 C 13.16667 km/h
714 27-01-2021 17:00:00 2.89167 C 5.61 g/m*3 -0.24 C 11.7 km/h
715 27-01-2021 18:00:00 2.925 C 5.62 g/m*3 -0.11 C 11.29167 km/h
716 27-01-2021 19:00:00 3.06667 C 5.67 g/m*3 -0.05 C 11.83333 km/h
717 27-01-2021 20:00:00 3.225 C 5.72 g/m*3 0.17 C 11.7 km/h
718 27-01-2021 21:00:00 3.375 C 5.73 g/m*3 0.4 C 11.43333 km/h
719 27-01-2021 22:00:00 3.6 C 5.82 g/m*3 0.79 C 10.9 km/h
720 27-01-2021 23:00:00 3.775 C 5.89 g/m*3 0.89 C 11.425 km/h
721 28-01-2021 00:00:00 3.89167 C 5.93 g/m*3 1.03 C 11.43333 km/h
722 28-01-2021 01:00:00 4.11667 C 6.02 g/m*3 1.22 C 11.825 km/h
723 28-01-2021 02:00:00 4.35 C 6.12 g/m*3 2.47 C 7.64167 km/h
724 28-01-2021 03:00:00 4.66667 C 6.25 g/m*3 2.66 C 8.33333 km/h
725 28-01-2021 04:00:00 4.56667 C 6.27 g/m*3 4.57 C 2.4 km/h
Sensor: Nr:Datum:Temp:Abs-Feuchte:Windchill:Wind:
Aussen-T/F 726 28-01-2021 05:00:00 4.5 C 6.24 g/m*3 4.5 C 0 km/h
727 28-01-2021 06:00:00 4.4 C 6.24 g/m*3 4.4 C 0 km/h
728 28-01-2021 07:00:00 4.3 C 6.23 g/m*3 4.3 C 0 km/h
729 28-01-2021 08:00:00 4.2 C 6.19 g/m*3 4.2 C 0 km/h
730 28-01-2021 09:00:00 4.33333 C 6.24 g/m*3 4.33 C 0 km/h
731 28-01-2021 10:00:00 4.61667 C 6.38 g/m*3 4.62 C 1.2 km/h
732 28-01-2021 11:00:00 5.03333 C 6.61 g/m*3 5.03 C 1.6 km/h
733 28-01-2021 12:00:00 6.30833 C 7.18 g/m*3 4.8 C 7.50833 km/h
734 28-01-2021 13:00:00 7.825 C 7.93 g/m*3 5.64 C 12.23333 km/h
735 28-01-2021 14:00:00 9.34167 C 8.67 g/m*3 6.98 C 15.975 km/h
736 28-01-2021 15:00:00 10.31667 C 9.12 g/m*3 8.18 C 16.10833 km/h
737 28-01-2021 16:00:00 10.65 C 9.37 g/m*3 8.86 C 13.83333 km/h
738 28-01-2021 17:00:00 11.03333 C 9.19 g/m*3 11.03 C 16.36667 km/h
739 28-01-2021 18:00:00 11.16667 C 8.96 g/m*3 11.17 C 14.76667 km/h
740 28-01-2021 19:00:00 11.15 C 8.82 g/m*3 11.15 C 14.76667 km/h
741 28-01-2021 20:00:00 10.70833 C 8.78 g/m*3 9.05 C 12.9 km/h
742 28-01-2021 21:00:00 10.25833 C 8.6 g/m*3 8.63 C 11.96667 km/h
743 28-01-2021 22:00:00 10.10833 C 8.39 g/m*3 9.21 C 7.65 km/h
744 28-01-2021 23:00:00 9.04167 C 7.99 g/m*3 7.96 C 7.64167 km/h
745 29-01-2021 00:00:00 8.88333 C 7.96 g/m*3 7.86 C 7.25833 km/h
746 29-01-2021 01:00:00 8.625 C 7.9 g/m*3 8.63 C 2 km/h
747 29-01-2021 02:00:00 8.21667 C 7.82 g/m*3 8.22 C 0 km/h
748 29-01-2021 03:00:00 8.3 C 8.01 g/m*3 8.3 C 0 km/h
749 29-01-2021 04:00:00 8.3 C 8.04 g/m*3 8.3 C 0.4 km/h
750 29-01-2021 05:00:00 8.51667 C 8.21 g/m*3 8.52 C 0 km/h
Sensor: Nr:Datum:Temp:Abs-Feuchte:Windchill:Wind:
Aussen-T/F 751 29-01-2021 06:00:00 8.775 C 8.39 g/m*3 8.78 C 1.2 km/h
752 29-01-2021 07:00:00 8.85833 C 8.41 g/m*3 6.5 C 15.03333 km/h
753 29-01-2021 08:00:00 8.80833 C 8.16 g/m*3 6.37 C 15.56667 km/h
754 29-01-2021 09:00:00 9.24167 C 8.18 g/m*3 7.06 C 14.36667 km/h
755 29-01-2021 10:00:00 10.05833 C 8.02 g/m*3 7.64 C 18.1 km/h
756 29-01-2021 11:00:00 10.3 C 7.7 g/m*3 7.98 C 17.7 km/h
757 29-01-2021 12:00:00 10.40833 C 7.98 g/m*3 8.09 C 17.96667 km/h
758 29-01-2021 13:00:00 9.525 C 7.89 g/m*3 6.77 C 20.10833 km/h
759 29-01-2021 14:00:00 9.075 C 7.94 g/m*3 7.88 C 8.19167 km/h
760 29-01-2021 15:00:00 9.65 C 7.96 g/m*3 7.96 C 11.55833 km/h
761 29-01-2021 16:00:00 9.26667 C 7.56 g/m*3 8.41 C 6.83333 km/h
762 29-01-2021 17:00:00 9.29167 C 7.63 g/m*3 7.57 C 11.28333 km/h
763 29-01-2021 18:00:00 8.74167 C 7.41 g/m*3 6.61 C 13.16667 km/h
764 29-01-2021 19:00:00 8.15833 C 7.31 g/m*3 6.71 C 8.6 km/h
765 29-01-2021 20:00:00 7.85 C 7.42 g/m*3 6.18 C 9.41667 km/h
766 29-01-2021 21:00:00 7.6 C 7.47 g/m*3 6.62 C 6.30833 km/h
767 29-01-2021 22:00:00 7.70833 C 7.46 g/m*3 6.15 C 8.75 km/h
768 29-01-2021 23:00:00 8.20833 C 7.28 g/m*3 6.26 C 11.28333 km/h
769 30-01-2021 00:00:00 8.41667 C 7.28 g/m*3 5.89 C 15.56667 km/h
770 30-01-2021 01:00:00 8.24167 C 7.11 g/m*3 6.02 C 13.03333 km/h
771 30-01-2021 02:00:00 7.73333 C 7.01 g/m*3 6.18 C 8.75 km/h
772 30-01-2021 03:00:00 7.38333 C 7.08 g/m*3 6.05 C 7.525 km/h
773 30-01-2021 04:00:00 7.25 C 7.04 g/m*3 5.35 C 9.96667 km/h
774 30-01-2021 05:00:00 7.59167 C 7.21 g/m*3 5.52 C 11.29167 km/h
775 30-01-2021 06:00:00 7.325 C 7.3 g/m*3 7.33 C 4.025 km/h
Sensor: Nr:Datum:Temp:Abs-Feuchte:Windchill:Wind:
Aussen-T/F 776 30-01-2021 07:00:00 6.84167 C 7.17 g/m*3 6.84 C 2.40833 km/h
777 30-01-2021 08:00:00 5.63333 C 6.66 g/m*3 5.63 C 2.95 km/h
778 30-01-2021 09:00:00 4.78333 C 6.36 g/m*3 4.78 C 1.06667 km/h
779 30-01-2021 10:00:00 4.58333 C 6.3 g/m*3 4.58 C 1.2 km/h
780 30-01-2021 11:00:00 4.2 C 6.15 g/m*3 4.2 C 4.14167 km/h
781 30-01-2021 12:00:00 2.88333 C 5.57 g/m*3 0.21 C 9.675 km/h
782 30-01-2021 13:00:00 2.53333 C 5.41 g/m*3 -0.4 C 10.49167 km/h
783 30-01-2021 14:00:00 2.00833 C 5.2 g/m*3 -0.94 C 10.08333 km/h
784 30-01-2021 15:00:00 1.60833 C 5.09 g/m*3 -0.57 C 7.10833 km/h
785 30-01-2021 16:00:00 1.24167 C 5 g/m*3 1.24 C 3.20833 km/h
786 30-01-2021 17:00:00 1.16667 C 4.99 g/m*3 1.17 C 3.74167 km/h
787 30-01-2021 18:00:00 1.2 C 5 g/m*3 -0.77 C 6.31667 km/h
788 30-01-2021 19:00:00 1.18333 C 4.99 g/m*3 1.18 C 4.00833 km/h
789 30-01-2021 20:00:00 1.1 C 4.96 g/m*3 1.1 C 0.93333 km/h
790 30-01-2021 21:00:00 1.1 C 5 g/m*3 1.1 C 0.8 km/h
791 30-01-2021 22:00:00 1.1 C 5.02 g/m*3 1.1 C 1.33333 km/h
792 30-01-2021 23:00:00 0.98333 C 4.98 g/m*3 0.98 C 1.74167 km/h
793 31-01-2021 00:00:00 0.84167 C 4.88 g/m*3 0.84 C 2.275 km/h
794 31-01-2021 01:00:00 0.78333 C 4.86 g/m*3 0.78 C 2.94167 km/h
795 31-01-2021 02:00:00 0.7 C 4.82 g/m*3 0.7 C 1.46667 km/h
796 31-01-2021 03:00:00 0.61667 C 4.74 g/m*3 0.62 C 2.28333 km/h
797 31-01-2021 04:00:00 0.48333 C 4.67 g/m*3 0.48 C 1.6 km/h
798 31-01-2021 05:00:00 0.35 C 4.56 g/m*3 -1.89 C 6.71667 km/h
799 31-01-2021 06:00:00 0.24167 C 4.45 g/m*3 -1.71 C 5.9 km/h
800 31-01-2021 07:00:00 0.2 C 4.38 g/m*3 -1.64 C 5.61667 km/h
Sensor: Nr:Datum:Temp:Abs-Feuchte:Windchill:Wind:
Aussen-T/F 801 31-01-2021 08:00:00 0.175 C 4.36 g/m*3 0.18 C 4.55 km/h
802 31-01-2021 09:00:00 0.25833 C 4.41 g/m*3 0.26 C 2.13333 km/h
803 31-01-2021 10:00:00 0.525 C 4.42 g/m*3 -1.32 C 5.75 km/h
804 31-01-2021 11:00:00 0.88333 C 4.49 g/m*3 -1.41 C 7.10833 km/h
805 31-01-2021 12:00:00 1.3 C 4.6 g/m*3 -0.33 C 5.49167 km/h
806 31-01-2021 13:00:00 1.48333 C 4.67 g/m*3 -0.76 C 7.24167 km/h
807 31-01-2021 14:00:00 1.54167 C 4.73 g/m*3 -0.74 C 7.38333 km/h
808 31-01-2021 15:00:00 1.68333 C 4.8 g/m*3 1.68 C 2.4 km/h
809 31-01-2021 16:00:00 1.66667 C 4.87 g/m*3 1.67 C 2.4 km/h
810 31-01-2021 17:00:00 1.625 C 4.96 g/m*3 1.63 C 0.13333 km/h
811 31-01-2021 18:00:00 1.425 C 4.96 g/m*3 1.43 C 0 km/h
812 31-01-2021 19:00:00 1.4 C 4.99 g/m*3 1.4 C 0 km/h
813 31-01-2021 20:00:00 1.45 C 5.03 g/m*3 1.45 C 0 km/h
814 31-01-2021 21:00:00 1.54167 C 5.12 g/m*3 1.54 C 0.26667 km/h
815 31-01-2021 22:00:00 1.6 C 5.14 g/m*3 1.6 C 0 km/h
816 31-01-2021 23:00:00 1.6 C 5.18 g/m*3 1.6 C 0 km/h
817 01-02-2021 00:00:00 1.7 C 5.23 g/m*3 1.7 C 0.26667 km/h
818 01-02-2021 01:00:00 1.7 C 5.23 g/m*3 1.7 C 0.93333 km/h
819 01-02-2021 02:00:00 1.775 C 5.25 g/m*3 1.78 C 0.13333 km/h
820 01-02-2021 03:00:00 1.85833 C 5.28 g/m*3 1.86 C 0.4 km/h
821 01-02-2021 04:00:00 1.9 C 5.3 g/m*3 1.9 C 0.26667 km/h
822 01-02-2021 05:00:00 1.95833 C 5.32 g/m*3 1.96 C 0.4 km/h
823 01-02-2021 06:00:00 2.09167 C 5.37 g/m*3 2.09 C 0.4 km/h
824 01-02-2021 07:00:00 2.15833 C 5.45 g/m*3 2.16 C 0.26667 km/h
825 01-02-2021 08:00:00 2.23333 C 5.48 g/m*3 2.23 C 0.13333 km/h
Sensor: Nr:Datum:Temp:Abs-Feuchte:Windchill:Wind:
Aussen-T/F 826 01-02-2021 09:00:00 2.75833 C 5.67 g/m*3 2.76 C 0 km/h
827 01-02-2021 10:00:00 3.49167 C 5.96 g/m*3 3.49 C 0.26667 km/h
828 01-02-2021 11:00:00 3.98333 C 6.16 g/m*3 3.98 C 0 km/h
829 01-02-2021 12:00:00 4.45 C 6.35 g/m*3 4.45 C 1.46667 km/h
830 01-02-2021 13:00:00 4.975 C 6.57 g/m*3 4.97 C 0.53333 km/h
831 01-02-2021 14:00:00 5.40833 C 6.71 g/m*3 5.41 C 0.13333 km/h
832 01-02-2021 15:00:00 5.76667 C 6.86 g/m*3 5.77 C 0.26667 km/h
833 01-02-2021 16:00:00 5.94167 C 6.94 g/m*3 5.94 C 0 km/h
834 01-02-2021 17:00:00 5.94167 C 6.94 g/m*3 5.94 C 0 km/h
835 01-02-2021 18:00:00 5.71667 C 6.84 g/m*3 5.72 C 0 km/h
836 01-02-2021 19:00:00 5.475 C 6.73 g/m*3 5.48 C 1.2 km/h
837 01-02-2021 20:00:00 5.55833 C 6.83 g/m*3 5.56 C 1.06667 km/h
838 01-02-2021 21:00:00 5.70833 C 6.91 g/m*3 5.71 C 1.46667 km/h
839 01-02-2021 22:00:00 5.53333 C 6.8 g/m*3 5.53 C 2.13333 km/h
840 01-02-2021 23:00:00 5.30833 C 6.68 g/m*3 5.31 C 0.4 km/h
841 02-02-2021 00:00:00 5.18333 C 6.63 g/m*3 5.18 C 0 km/h
842 02-02-2021 01:00:00 5.06667 C 6.62 g/m*3 5.07 C 1.6 km/h
843 02-02-2021 02:00:00 4.95 C 6.57 g/m*3 4.95 C 2.26667 km/h
844 02-02-2021 03:00:00 4.81667 C 6.51 g/m*3 4.82 C 1.73333 km/h
845 02-02-2021 04:00:00 4.6 C 6.35 g/m*3 4.6 C 4.80833 km/h
846 02-02-2021 05:00:00 4.6 C 6.29 g/m*3 4.6 C 1.86667 km/h
847 02-02-2021 06:00:00 4.65 C 6.31 g/m*3 4.65 C 1.33333 km/h
848 02-02-2021 07:00:00 4.85 C 6.43 g/m*3 4.85 C 0.8 km/h
849 02-02-2021 08:00:00 5.14167 C 6.55 g/m*3 5.14 C 0.53333 km/h
850 02-02-2021 09:00:00 5.48333 C 6.73 g/m*3 5.48 C 0 km/h
Sensor: Nr:Datum:Temp:Abs-Feuchte:Windchill:Wind:
Aussen-T/F 851 02-02-2021 10:00:00 5.93333 C 6.95 g/m*3 5.93 C 0 km/h
852 02-02-2021 11:00:00 6.55 C 7.29 g/m*3 6.55 C 0 km/h
853 02-02-2021 12:00:00 7.50833 C 7.77 g/m*3 7.51 C 1.06667 km/h
854 02-02-2021 13:00:00 9.35 C 8.69 g/m*3 7.27 C 13.81667 km/h
855 02-02-2021 14:00:00 10.65 C 9.04 g/m*3 8.67 C 15.43333 km/h
856 02-02-2021 15:00:00 11.125 C 9.19 g/m*3 11.13 C 9.68333 km/h
857 02-02-2021 16:00:00 11.19167 C 9.23 g/m*3 11.19 C 7.25 km/h
858 02-02-2021 17:00:00 10.84167 C 9.07 g/m*3 10.06 C 7.65833 km/h
859 02-02-2021 18:00:00 10.79167 C 8.9 g/m*3 9.65 C 9.55833 km/h
860 02-02-2021 19:00:00 10.175 C 8.64 g/m*3 10.18 C 4.28333 km/h
861 02-02-2021 20:00:00 10.075 C 8.84 g/m*3 9.41 C 6.56667 km/h
862 02-02-2021 21:00:00 10.00833 C 8.92 g/m*3 9.3 C 6.70833 km/h
863 02-02-2021 22:00:00 10.29167 C 9.09 g/m*3 8.86 C 10.75 km/h
864 02-02-2021 23:00:00 10.08333 C 8.97 g/m*3 9.78 C 5.225 km/h
865 03-02-2021 00:00:00 10.26667 C 9.08 g/m*3 9.25 C 8.33333 km/h
866 03-02-2021 01:00:00 9.65833 C 8.7 g/m*3 9.66 C 4.4 km/h
867 03-02-2021 02:00:00 9.06667 C 8.47 g/m*3 9.07 C 2.66667 km/h
868 03-02-2021 03:00:00 8.95 C 8.44 g/m*3 8.95 C 2.13333 km/h
869 03-02-2021 04:00:00 8.33333 C 8.11 g/m*3 8.33 C 0 km/h
870 03-02-2021 05:00:00 8 C 7.94 g/m*3 8 C 0 km/h
871 03-02-2021 06:00:00 7.825 C 7.9 g/m*3 7.83 C 0 km/h
872 03-02-2021 07:00:00 8 C 8.02 g/m*3 8 C 0 km/h
873 03-02-2021 08:00:00 8.225 C 8.14 g/m*3 8.23 C 0 km/h
874 03-02-2021 09:00:00 9.05833 C 8.64 g/m*3 9.06 C 0 km/h
875 03-02-2021 10:00:00 9.83333 C 9.1 g/m*3 9.83 C 0 km/h
Sensor: Nr:Datum:Temp:Abs-Feuchte:Windchill:Wind:
Aussen-T/F 876 03-02-2021 11:00:00 10.2 C 9.27 g/m*3 10.2 C 1.2 km/h
877 03-02-2021 12:00:00 10.56667 C 9.5 g/m*3 10.57 C 2.54167 km/h
878 03-02-2021 13:00:00 11.55833 C 9.76 g/m*3 11.56 C 18.9 km/h
879 03-02-2021 14:00:00 12.11667 C 9.7 g/m*3 12.12 C 15.3 km/h
880 03-02-2021 15:00:00 10.89167 C 9.28 g/m*3 8.87 C 16.25 km/h
881 03-02-2021 16:00:00 11.26667 C 8.79 g/m*3 11.27 C 18.65 km/h
882 03-02-2021 17:00:00 10.45 C 8.66 g/m*3 8.81 C 12.33333 km/h
883 03-02-2021 18:00:00 9.81667 C 8.65 g/m*3 9.25 C 6.025 km/h
884 03-02-2021 19:00:00 9.75833 C 8.69 g/m*3 8.22 C 10.75 km/h
885 03-02-2021 20:00:00 10.175 C 8.84 g/m*3 8.83 C 10.09167 km/h
886 03-02-2021 21:00:00 9.95 C 8.69 g/m*3 7.98 C 13.96667 km/h
887 03-02-2021 22:00:00 9.6 C 8.44 g/m*3 7.26 C 16.36667 km/h
888 03-02-2021 23:00:00 9.7 C 8.01 g/m*3 7.31 C 17.03333 km/h
889 04-02-2021 00:00:00 9.36667 C 7.69 g/m*3 6.98 C 16.23333 km/h
890 04-02-2021 01:00:00 8.76667 C 7.53 g/m*3 6.96 C 11.15833 km/h
891 04-02-2021 02:00:00 8.03333 C 7.3 g/m*3 6.42 C 9.275 km/h
892 04-02-2021 03:00:00 7.51667 C 7 g/m*3 5.57 C 10.5 km/h
893 04-02-2021 04:00:00 7.175 C 6.75 g/m*3 4.56 C 14.09167 km/h
894 04-02-2021 05:00:00 6.58333 C 6.57 g/m*3 4.7 C 9.28333 km/h
895 04-02-2021 06:00:00 6.23333 C 6.63 g/m*3 4.44 C 8.58333 km/h
896 04-02-2021 07:00:00 6.4 C 6.65 g/m*3 4.61 C 8.71667 km/h
897 04-02-2021 08:00:00 5.775 C 6.45 g/m*3 4.32 C 6.98333 km/h
898 04-02-2021 09:00:00 5.15 C 6.33 g/m*3 5.15 C 3.33333 km/h
899 04-02-2021 10:00:00 5.25 C 6.46 g/m*3 5.25 C 3.6 km/h
900 04-02-2021 11:00:00 6.6 C 6.82 g/m*3 4.84 C 8.725 km/h
Sensor: Nr:Datum:Temp:Abs-Feuchte:Windchill:Wind:
Aussen-T/F 901 04-02-2021 12:00:00 7.76667 C 6.91 g/m*3 5.97 C 9.94167 km/h
902 04-02-2021 13:00:00 8.01667 C 6.84 g/m*3 6.89 C 7.10833 km/h
903 04-02-2021 14:00:00 8.89167 C 6.91 g/m*3 7.94 C 6.975 km/h
904 04-02-2021 15:00:00 8.41667 C 6.94 g/m*3 8.42 C 4.13333 km/h
905 04-02-2021 16:00:00 6.84167 C 6.77 g/m*3 5.97 C 5.6 km/h
906 04-02-2021 17:00:00 6.08333 C 6.67 g/m*3 6.08 C 4.66667 km/h
907 04-02-2021 18:00:00 5.66667 C 6.56 g/m*3 5.67 C 2.66667 km/h
908 04-02-2021 19:00:00 5.25833 C 6.43 g/m*3 5.26 C 0.26667 km/h
909 04-02-2021 20:00:00 4.7 C 6.26 g/m*3 4.7 C 0.26667 km/h
910 04-02-2021 21:00:00 4.78333 C 6.36 g/m*3 4.78 C 0.4 km/h
911 04-02-2021 22:00:00 4.825 C 6.38 g/m*3 4.83 C 0.13333 km/h
912 04-02-2021 23:00:00 5.075 C 6.52 g/m*3 5.08 C 0 km/h
913 05-02-2021 00:00:00 5.25 C 6.63 g/m*3 5.25 C 0 km/h
914 05-02-2021 01:00:00 5.3 C 6.64 g/m*3 5.3 C 0 km/h
915 05-02-2021 02:00:00 5.26667 C 6.64 g/m*3 5.27 C 0 km/h
916 05-02-2021 03:00:00 5.15 C 6.57 g/m*3 5.15 C 0 km/h
917 05-02-2021 04:00:00 4.86667 C 6.43 g/m*3 4.87 C 0 km/h
918 05-02-2021 05:00:00 4.625 C 6.34 g/m*3 4.63 C 1.06667 km/h
919 05-02-2021 06:00:00 4.95 C 6.5 g/m*3 4.95 C 0 km/h
920 05-02-2021 07:00:00 5.2 C 6.61 g/m*3 5.2 C 0 km/h
921 05-02-2021 08:00:00 5.575 C 6.78 g/m*3 5.58 C 0 km/h
922 05-02-2021 09:00:00 6.025 C 7.02 g/m*3 6.03 C 0 km/h
923 05-02-2021 10:00:00 6.625 C 7.31 g/m*3 6.63 C 0 km/h
924 05-02-2021 11:00:00 7.16667 C 7.54 g/m*3 7.17 C 0 km/h
925 05-02-2021 12:00:00 7.6 C 7.73 g/m*3 7.6 C 0 km/h
Sensor: Nr:Datum:Temp:Abs-Feuchte:Windchill:Wind:
Aussen-T/F 926 05-02-2021 13:00:00 7.96667 C 7.92 g/m*3 7.97 C 0 km/h
927 05-02-2021 14:00:00 8.50833 C 8.25 g/m*3 8.51 C 0 km/h
928 05-02-2021 15:00:00 9.13333 C 8.6 g/m*3 9.13 C 2 km/h
929 05-02-2021 16:00:00 9.25833 C 8.6 g/m*3 9.26 C 0 km/h
930 05-02-2021 17:00:00 8.25833 C 8 g/m*3 8.26 C 2.26667 km/h
931 05-02-2021 18:00:00 6.98333 C 7.39 g/m*3 6.98 C 3.33333 km/h
932 05-02-2021 19:00:00 7.10833 C 7.49 g/m*3 7.11 C 0.66667 km/h
933 05-02-2021 20:00:00 6.125 C 7.03 g/m*3 6.13 C 0.13333 km/h
934 05-02-2021 21:00:00 5.3 C 6.67 g/m*3 5.3 C 0 km/h
935 05-02-2021 22:00:00 5.825 C 6.96 g/m*3 5.83 C 0 km/h
936 05-02-2021 23:00:00 6.18333 C 7.13 g/m*3 6.18 C 0 km/h
937 06-02-2021 00:00:00 6.15 C 7.11 g/m*3 6.15 C 0 km/h
938 06-02-2021 01:00:00 6.025 C 7.05 g/m*3 6.03 C 0.8 km/h
939 06-02-2021 02:00:00 6.325 C 7.19 g/m*3 6.33 C 0.8 km/h
940 06-02-2021 03:00:00 6.20833 C 7.14 g/m*3 6.21 C 0 km/h
941 06-02-2021 04:00:00 6.10833 C 7.09 g/m*3 6.11 C 0 km/h
942 06-02-2021 05:00:00 6.13333 C 7.1 g/m*3 6.13 C 0.13333 km/h
943 06-02-2021 06:00:00 6.2 C 7.13 g/m*3 6.2 C 0.13333 km/h
944 06-02-2021 07:00:00 6.2 C 7.13 g/m*3 6.2 C 0 km/h
945 06-02-2021 08:00:00 6.14167 C 7.11 g/m*3 6.14 C 1.46667 km/h
946 06-02-2021 09:00:00 6.04167 C 7.06 g/m*3 6.04 C 4.29167 km/h
947 06-02-2021 10:00:00 6.20833 C 7.14 g/m*3 6.21 C 1.86667 km/h
948 06-02-2021 11:00:00 6.21667 C 7.14 g/m*3 6.22 C 3.20833 km/h
949 06-02-2021 12:00:00 6.04167 C 7.05 g/m*3 6.04 C 4.83333 km/h
950 06-02-2021 13:00:00 5.78333 C 6.85 g/m*3 4.04 C 8.05 km/h
Sensor: Nr:Datum:Temp:Abs-Feuchte:Windchill:Wind:
Aussen-T/F 951 06-02-2021 14:00:00 5.45833 C 6.65 g/m*3 5.46 C 4.825 km/h
952 06-02-2021 15:00:00 5.11667 C 6.49 g/m*3 3.63 C 6.71667 km/h
953 06-02-2021 16:00:00 4.66667 C 6.25 g/m*3 3.16 C 6.56667 km/h
954 06-02-2021 17:00:00 4.16667 C 6.06 g/m*3 2.37 C 7.25 km/h
955 06-02-2021 18:00:00 3.675 C 5.91 g/m*3 1.12 C 9.80833 km/h
956 06-02-2021 19:00:00 3.28333 C 5.74 g/m*3 -0.14 C 13.7 km/h
957 06-02-2021 20:00:00 3.05833 C 5.67 g/m*3 1.39 C 6.3 km/h
958 06-02-2021 21:00:00 2.69167 C 5.53 g/m*3 1.06 C 6.03333 km/h
959 06-02-2021 22:00:00 2.39167 C 5.42 g/m*3 -0.75 C 11.28333 km/h
960 06-02-2021 23:00:00 2.3 C 5.39 g/m*3 -0.74 C 10.74167 km/h
961 07-02-2021 00:00:00 2.325 C 5.4 g/m*3 -1.71 C 15.96667 km/h
962 07-02-2021 01:00:00 2.4 C 5.42 g/m*3 -1.05 C 12.75833 km/h
963 07-02-2021 02:00:00 2.325 C 5.4 g/m*3 -0.1 C 8.30833 km/h
964 07-02-2021 03:00:00 2.13333 C 5.33 g/m*3 -0.65 C 9.55 km/h
965 07-02-2021 04:00:00 1.96667 C 5.31 g/m*3 -1.14 C 10.75 km/h
966 07-02-2021 05:00:00 2.025 C 5.34 g/m*3 0.3 C 6.01667 km/h
967 07-02-2021 06:00:00 2 C 5.33 g/m*3 0.32 C 5.89167 km/h
968 07-02-2021 07:00:00 1.94167 C 5.31 g/m*3 0.58 C 5.08333 km/h
969 07-02-2021 08:00:00 1.75833 C 5.25 g/m*3 -1.06 C 9.4 km/h
970 07-02-2021 09:00:00 1.7 C 5.23 g/m*3 0.13 C 5.5 km/h
971 07-02-2021 10:00:00 1.73333 C 5.24 g/m*3 0.29 C 5.20833 km/h
972 07-02-2021 11:00:00 1.81667 C 5.27 g/m*3 0.05 C 6.025 km/h
973 07-02-2021 12:00:00 1.66667 C 5.18 g/m*3 1.67 C 4.54167 km/h
974 07-02-2021 13:00:00 1.275 C 5.03 g/m*3 -0.36 C 5.5 km/h
975 07-02-2021 14:00:00 1.14167 C 5.01 g/m*3 1.14 C 4.00833 km/h
Sensor: Nr:Datum:Temp:Abs-Feuchte:Windchill:Wind:
Aussen-T/F 976 07-02-2021 15:00:00 0.99167 C 4.93 g/m*3 0.99 C 2.66667 km/h
977 07-02-2021 16:00:00 0.825 C 4.87 g/m*3 0.83 C 2.4 km/h
978 07-02-2021 17:00:00 0.575 C 4.79 g/m*3 -0.98 C 5.08333 km/h
979 07-02-2021 18:00:00 0.24167 C 4.68 g/m*3 -1.35 C 5.08333 km/h
980 07-02-2021 19:00:00 0.00833 C 4.57 g/m*3 0.01 C 4.825 km/h
981 07-02-2021 20:00:00 -0.35 C 4.45 g/m*3 -2.6 C 6.43333 km/h
982 07-02-2021 21:00:00 -0.80833 C 4.28 g/m*3 -3.57 C 7.65833 km/h
983 07-02-2021 22:00:00 -1.34167 C 4.1 g/m*3 -4.34 C 8.06667 km/h
984 07-02-2021 23:00:00 -1.81667 C 3.96 g/m*3 -4.35 C 6.56667 km/h
985 08-02-2021 00:00:00 -2.03333 C 3.86 g/m*3 -4.2 C 5.63333 km/h
986 08-02-2021 01:00:00 -2.28333 C 3.76 g/m*3 -4.72 C 6.15833 km/h
987 08-02-2021 02:00:00 -2.6 C 3.63 g/m*3 -5.03 C 6.03333 km/h
988 08-02-2021 03:00:00 -2.84167 C 3.56 g/m*3 -5.24 C 5.89167 km/h
989 08-02-2021 04:00:00 -3.24167 C 3.44 g/m*3 -5.38 C 5.225 km/h
990 08-02-2021 05:00:00 -3.53333 C 3.34 g/m*3 -6.81 C 7.775 km/h
991 08-02-2021 06:00:00 -3.70833 C 3.27 g/m*3 -7.07 C 7.925 km/h
992 08-02-2021 07:00:00 -3.8 C 3.24 g/m*3 -6.64 C 6.56667 km/h
993 08-02-2021 08:00:00 -3.93333 C 3.2 g/m*3 -6.74 C 6.44167 km/h
994 08-02-2021 09:00:00 -3.825 C 3.23 g/m*3 -7.3 C 8.2 km/h
995 08-02-2021 10:00:00 -3.63333 C 3.25 g/m*3 -7.35 C 9.00833 km/h
996 08-02-2021 11:00:00 -3.38333 C 3.29 g/m*3 -7.3 C 9.81667 km/h
997 08-02-2021 12:00:00 -3.275 C 3.33 g/m*3 -6.65 C 8.18333 km/h
998 08-02-2021 13:00:00 -3.3 C 3.32 g/m*3 -6.63 C 8.05 km/h
999 08-02-2021 14:00:00 -3.28333 C 3.36 g/m*3 -3.28 C 4.95 km/h
1000 08-02-2021 15:00:00 -3.28333 C 3.4 g/m*3 -5.49 C 5.34167 km/h
Sensor: Nr:Datum:Temp:Abs-Feuchte:Windchill:Wind:
Aussen-T/F 1001 08-02-2021 16:00:00 -3.33333 C 3.39 g/m*3 -6.16 C 6.70833 km/h
1002 08-02-2021 17:00:00 -3.51667 C 3.32 g/m*3 -6.08 C 6.025 km/h
1003 08-02-2021 18:00:00 -3.925 C 3.26 g/m*3 -7.47 C 8.33333 km/h
1004 08-02-2021 19:00:00 -4.08333 C 3.23 g/m*3 -4.08 C 4.80833 km/h
1005 08-02-2021 20:00:00 -4.18333 C 3.15 g/m*3 -6.78 C 5.88333 km/h
1006 08-02-2021 21:00:00 -4.3 C 3.07 g/m*3 -4.3 C 3.475 km/h
1007 08-02-2021 22:00:00 -4.38333 C 3.04 g/m*3 -4.38 C 3.475 km/h
1008 08-02-2021 23:00:00 -4.40833 C 3.06 g/m*3 -4.41 C 1.33333 km/h
1009 09-02-2021 00:00:00 -4.55 C 3 g/m*3 -4.55 C 3.06667 km/h
1010 09-02-2021 01:00:00 -4.65833 C 2.95 g/m*3 -4.66 C 2.4 km/h
1011 09-02-2021 02:00:00 -4.8 C 2.92 g/m*3 -4.8 C 1.46667 km/h
1012 09-02-2021 03:00:00 -4.8 C 2.94 g/m*3 -4.8 C 1.33333 km/h
1013 09-02-2021 04:00:00 -4.85 C 2.96 g/m*3 -4.85 C 0.8 km/h
1014 09-02-2021 05:00:00 -4.9 C 2.96 g/m*3 -4.9 C 1.06667 km/h
1015 09-02-2021 06:00:00 -4.95833 C 2.96 g/m*3 -4.96 C 1.6 km/h
1016 09-02-2021 07:00:00 -5.1 C 2.92 g/m*3 -5.1 C 2.66667 km/h
1017 09-02-2021 08:00:00 -5.225 C 2.88 g/m*3 -5.23 C 1.46667 km/h
1018 09-02-2021 09:00:00 -5.325 C 2.84 g/m*3 -5.33 C 2.13333 km/h
1019 09-02-2021 10:00:00 -5.375 C 2.78 g/m*3 -5.38 C 3.73333 km/h
1020 09-02-2021 11:00:00 -4.99167 C 2.63 g/m*3 -7.78 C 6.025 km/h
1021 09-02-2021 12:00:00 -4.21667 C 2.67 g/m*3 -7.12 C 6.55 km/h
1022 09-02-2021 13:00:00 -3.69167 C 2.71 g/m*3 -3.69 C 4.4 km/h
1023 09-02-2021 14:00:00 -3.49167 C 2.65 g/m*3 -3.49 C 3.48333 km/h
1024 09-02-2021 15:00:00 -3.325 C 2.67 g/m*3 -3.33 C 1.86667 km/h
1025 09-02-2021 16:00:00 -3.45833 C 2.71 g/m*3 -6.57 C 7.375 km/h
Sensor: Nr:Datum:Temp:Abs-Feuchte:Windchill:Wind:
Aussen-T/F 1026 09-02-2021 17:00:00 -3.88333 C 2.71 g/m*3 -8.02 C 10.23333 km/h
1027 09-02-2021 18:00:00 -4.28333 C 2.6 g/m*3 -8.03 C 8.73333 km/h
1028 09-02-2021 19:00:00 -4.45833 C 2.66 g/m*3 -7.8 C 7.525 km/h
1029 09-02-2021 20:00:00 -4.75833 C 2.83 g/m*3 -4.76 C 2.4 km/h
1030 09-02-2021 21:00:00 -5.35833 C 2.73 g/m*3 -8.84 C 7.51667 km/h
1031 09-02-2021 22:00:00 -5.94167 C 2.53 g/m*3 -9.41 C 7.24167 km/h
1032 09-02-2021 23:00:00 -6.64167 C 2.38 g/m*3 -9.74 C 6.15833 km/h
1033 10-02-2021 00:00:00 -7.61667 C 2.23 g/m*3 -7.62 C 3.6 km/h
1034 10-02-2021 01:00:00 -8.38333 C 2.16 g/m*3 -8.38 C 1.46667 km/h
1035 10-02-2021 02:00:00 -9 C 2.13 g/m*3 -9 C 2.26667 km/h
1036 10-02-2021 03:00:00 -8.85 C 2.14 g/m*3 -8.85 C 4.95833 km/h
1037 10-02-2021 04:00:00 -9.15833 C 2.08 g/m*3 -9.16 C 2.8 km/h
1038 10-02-2021 05:00:00 -9.09167 C 2.1 g/m*3 -9.09 C 4.00833 km/h
1039 10-02-2021 06:00:00 -9.075 C 2.09 g/m*3 -9.07 C 3.06667 km/h
1040 10-02-2021 07:00:00 -8.88333 C 2.15 g/m*3 -8.88 C 4.00833 km/h
1041 10-02-2021 08:00:00 -8.58333 C 2.21 g/m*3 -8.58 C 4.55 km/h
1042 10-02-2021 09:00:00 -8.14167 C 2.23 g/m*3 -12.27 C 7.91667 km/h
1043 10-02-2021 10:00:00 -7.58333 C 2.24 g/m*3 -11.16 C 6.85833 km/h
1044 10-02-2021 11:00:00 -6.46667 C 2.39 g/m*3 -9.74 C 6.58333 km/h
1045 10-02-2021 12:00:00 -4.59167 C 2.59 g/m*3 -8.78 C 9.93333 km/h
1046 10-02-2021 13:00:00 -3.61667 C 2.74 g/m*3 -7.89 C 10.9 km/h
1047 10-02-2021 14:00:00 -2.65 C 2.83 g/m*3 -7.41 C 13.7 km/h
1048 10-02-2021 15:00:00 -2.16667 C 2.89 g/m*3 -5.65 C 9.125 km/h
1049 10-02-2021 16:00:00 -1.525 C 2.98 g/m*3 -5.08 C 9.8 km/h
1050 10-02-2021 17:00:00 -1.85 C 3.08 g/m*3 -3.73 C 5.09167 km/h
Sensor: Nr:Datum:Temp:Abs-Feuchte:Windchill:Wind:
Aussen-T/F 1051 10-02-2021 18:00:00 -2.6 C 3 g/m*3 -5.03 C 6.04167 km/h
1052 10-02-2021 19:00:00 -3.74167 C 3.02 g/m*3 -3.74 C 0.53333 km/h
1053 10-02-2021 20:00:00 -2.84167 C 3.21 g/m*3 -6.49 C 9.275 km/h
1054 10-02-2021 21:00:00 -2.65833 C 3.28 g/m*3 -5.69 C 7.50833 km/h
1055 10-02-2021 22:00:00 -3.05 C 3.28 g/m*3 -3.05 C 2.26667 km/h
1056 10-02-2021 23:00:00 -3.11667 C 3.3 g/m*3 -3.12 C 3.06667 km/h
1057 11-02-2021 00:00:00 -2.94167 C 3.31 g/m*3 -2.94 C 3.6 km/h
1058 11-02-2021 01:00:00 -2.98333 C 3.3 g/m*3 -2.98 C 4.15 km/h
1059 11-02-2021 02:00:00 -3.10833 C 3.3 g/m*3 -3.11 C 4.69167 km/h
1060 11-02-2021 03:00:00 -3.275 C 3.3 g/m*3 -3.28 C 2.66667 km/h
1061 11-02-2021 04:00:00 -3.64167 C 3.24 g/m*3 -5.96 C 5.475 km/h
1062 11-02-2021 05:00:00 -4.2 C 3.17 g/m*3 -4.2 C 1.46667 km/h
1063 11-02-2021 06:00:00 -4.81667 C 3.05 g/m*3 -4.82 C 1.6 km/h
1064 11-02-2021 07:00:00 -5.86667 C 2.88 g/m*3 -5.87 C 1.2 km/h
1065 11-02-2021 08:00:00 -6.35 C 2.82 g/m*3 -6.35 C 0.8 km/h
1066 11-02-2021 09:00:00 -6.11667 C 2.89 g/m*3 -6.12 C 0.8 km/h
1067 11-02-2021 10:00:00 -5.55 C 3.01 g/m*3 -5.55 C 1.2 km/h
1068 11-02-2021 11:00:00 -4.425 C 3.26 g/m*3 -4.43 C 2.53333 km/h
1069 11-02-2021 12:00:00 -2.89167 C 3.54 g/m*3 -2.89 C 0 km/h
1070 11-02-2021 13:00:00 -1.04167 C 3.56 g/m*3 -1.04 C 2.26667 km/h
1071 11-02-2021 14:00:00 0.03333 C 3.38 g/m*3 -2.26 C 6.71667 km/h
1072 11-02-2021 15:00:00 0.55 C 3.26 g/m*3 -1.29 C 5.74167 km/h
1073 11-02-2021 16:00:00 -0.33333 C 3.31 g/m*3 -0.33 C 1.46667 km/h
1074 11-02-2021 17:00:00 -1.23333 C 3.4 g/m*3 -1.23 C 3.46667 km/h
1075 11-02-2021 18:00:00 -2.19167 C 3.41 g/m*3 -2.19 C 2.53333 km/h
Sensor: Nr:Datum:Temp:Abs-Feuchte:Windchill:Wind:
Aussen-T/F 1076 11-02-2021 19:00:00 -2.81667 C 3.3 g/m*3 -2.82 C 4.13333 km/h
1077 11-02-2021 20:00:00 -3.95 C 3.11 g/m*3 -3.95 C 4.26667 km/h
1078 11-02-2021 21:00:00 -3.69167 C 3.19 g/m*3 -3.69 C 2.26667 km/h
1079 11-02-2021 22:00:00 -3.84167 C 3.18 g/m*3 -3.84 C 2.8 km/h
1080 11-02-2021 23:00:00 -4.19167 C 2.98 g/m*3 -4.19 C 4.40833 km/h
1081 12-02-2021 00:00:00 -4.94167 C 2.77 g/m*3 -4.94 C 4.69167 km/h
1082 12-02-2021 01:00:00 -5.375 C 2.7 g/m*3 -5.38 C 2.66667 km/h
1083 12-02-2021 02:00:00 -6.46667 C 2.6 g/m*3 -6.47 C 2.13333 km/h
1084 12-02-2021 03:00:00 -6.825 C 2.6 g/m*3 -6.83 C 3.075 km/h
1085 12-02-2021 04:00:00 -6.03333 C 2.75 g/m*3 -6.03 C 2.66667 km/h
1086 12-02-2021 05:00:00 -5.29167 C 2.81 g/m*3 -8.37 C 6.575 km/h
1087 12-02-2021 06:00:00 -5.81667 C 2.73 g/m*3 -5.82 C 1.74167 km/h
1088 12-02-2021 07:00:00 -6.825 C 2.6 g/m*3 -6.83 C 1.06667 km/h
1089 12-02-2021 08:00:00 -7.38333 C 2.55 g/m*3 -7.38 C 1.33333 km/h
1090 12-02-2021 09:00:00 -7.11667 C 2.63 g/m*3 -7.12 C 1.6 km/h
1091 12-02-2021 10:00:00 -6.16667 C 2.76 g/m*3 -6.17 C 3.20833 km/h
1092 12-02-2021 11:00:00 -3.975 C 2.8 g/m*3 -7.84 C 9.26667 km/h
1093 12-02-2021 12:00:00 -2.5 C 2.85 g/m*3 -6.89 C 12.23333 km/h
1094 12-02-2021 13:00:00 -1.525 C 2.85 g/m*3 -5.67 C 12.08333 km/h
1095 12-02-2021 14:00:00 -1.03333 C 2.86 g/m*3 -5.01 C 11.81667 km/h
1096 12-02-2021 15:00:00 -1.00833 C 2.82 g/m*3 -5.43 C 13.83333 km/h
1097 12-02-2021 16:00:00 -1.30833 C 2.83 g/m*3 -4.59 C 8.99167 km/h
1098 12-02-2021 17:00:00 -1.81667 C 2.91 g/m*3 -4.55 C 7.1 km/h
1099 12-02-2021 18:00:00 -3.19167 C 2.94 g/m*3 -3.19 C 4.81667 km/h
1100 12-02-2021 19:00:00 -4.525 C 2.87 g/m*3 -4.53 C 4.13333 km/h
Sensor: Nr:Datum:Temp:Abs-Feuchte:Windchill:Wind:
Aussen-T/F 1101 12-02-2021 20:00:00 -5.2 C 2.76 g/m*3 -5.2 C 4.55 km/h
1102 12-02-2021 21:00:00 -5.84167 C 2.68 g/m*3 -5.84 C 3.86667 km/h
1103 12-02-2021 22:00:00 -6.31667 C 2.61 g/m*3 -6.32 C 3.6 km/h
1104 12-02-2021 23:00:00 -6.96667 C 2.52 g/m*3 -6.97 C 3.35 km/h
1105 13-02-2021 00:00:00 -7.23333 C 2.45 g/m*3 -7.23 C 3.33333 km/h
1106 13-02-2021 01:00:00 -8.16667 C 2.33 g/m*3 -8.17 C 1.73333 km/h
1107 13-02-2021 02:00:00 -8.54167 C 2.29 g/m*3 -8.54 C 2 km/h
1108 13-02-2021 03:00:00 -8.91667 C 2.25 g/m*3 -8.92 C 3.33333 km/h
1109 13-02-2021 04:00:00 -8.98333 C 2.24 g/m*3 -8.98 C 3.73333 km/h
1110 13-02-2021 05:00:00 -9.275 C 2.19 g/m*3 -9.28 C 2.13333 km/h
1111 13-02-2021 06:00:00 -9.30833 C 2.21 g/m*3 -9.31 C 2.8 km/h
1112 13-02-2021 07:00:00 -9.20833 C 2.22 g/m*3 -9.21 C 3.06667 km/h
1113 13-02-2021 08:00:00 -9.36667 C 2.2 g/m*3 -9.37 C 1.2 km/h
1114 13-02-2021 09:00:00 -8.81667 C 2.33 g/m*3 -8.82 C 1.075 km/h
1115 13-02-2021 10:00:00 -7.29167 C 2.59 g/m*3 -7.29 C 3.2 km/h
1116 13-02-2021 11:00:00 -4.75833 C 2.91 g/m*3 -7.25 C 5.49167 km/h
1117 13-02-2021 12:00:00 -2.29167 C 3 g/m*3 -5.59 C 8.475 km/h
1118 13-02-2021 13:00:00 -0.41667 C 2.89 g/m*3 -2.73 C 6.58333 km/h
1119 13-02-2021 14:00:00 0.825 C 2.53 g/m*3 -2.76 C 11.825 km/h
1120 13-02-2021 15:00:00 0.76667 C 2.55 g/m*3 -1.86 C 8.05833 km/h
1121 13-02-2021 16:00:00 0.76667 C 2.66 g/m*3 -1.9 C 8.19167 km/h
1122 13-02-2021 17:00:00 -0.125 C 2.9 g/m*3 -0.13 C 3.6 km/h
1123 13-02-2021 18:00:00 -2.71667 C 2.98 g/m*3 -2.72 C 4 km/h
1124 13-02-2021 19:00:00 -4.21667 C 2.88 g/m*3 -4.22 C 3.2 km/h
1125 13-02-2021 20:00:00 -4.88333 C 2.82 g/m*3 -4.88 C 3.46667 km/h
Sensor: Nr:Datum:Temp:Abs-Feuchte:Windchill:Wind:
Aussen-T/F 1126 13-02-2021 21:00:00 -5.55833 C 2.74 g/m*3 -5.56 C 2.66667 km/h
1127 13-02-2021 22:00:00 -6.19167 C 2.68 g/m*3 -6.19 C 4 km/h
1128 13-02-2021 23:00:00 -6.58333 C 2.64 g/m*3 -6.58 C 2.66667 km/h
1129 14-02-2021 00:00:00 -7.39167 C 2.52 g/m*3 -7.39 C 1.33333 km/h
1130 14-02-2021 01:00:00 -8.10833 C 2.43 g/m*3 -8.11 C 1.2 km/h
1131 14-02-2021 02:00:00 -8.21667 C 2.44 g/m*3 -8.22 C 4 km/h
1132 14-02-2021 03:00:00 -7.96667 C 2.49 g/m*3 -7.97 C 2.4 km/h
1133 14-02-2021 04:00:00 -8.55 C 2.38 g/m*3 -8.55 C 1.86667 km/h
1134 14-02-2021 05:00:00 -8.66667 C 2.38 g/m*3 -8.67 C 2.13333 km/h
1135 14-02-2021 06:00:00 -8.95 C 2.34 g/m*3 -8.95 C 1.33333 km/h
1136 14-02-2021 07:00:00 -9.49167 C 2.24 g/m*3 -9.49 C 0.53333 km/h
1137 14-02-2021 08:00:00 -9.31667 C 2.28 g/m*3 -9.32 C 1.73333 km/h
1138 14-02-2021 09:00:00 -8.16667 C 2.51 g/m*3 -8.17 C 4.4 km/h
1139 14-02-2021 10:00:00 -6.625 C 2.81 g/m*3 -6.63 C 4.4 km/h
1140 14-02-2021 11:00:00 -4.275 C 3.31 g/m*3 -6.48 C 5.06667 km/h
1141 14-02-2021 12:00:00 -1.55 C 3.72 g/m*3 -3.57 C 5.475 km/h
1142 14-02-2021 13:00:00 1.44167 C 3.4 g/m*3 -0.47 C 6.28333 km/h
1143 14-02-2021 14:00:00 3.7 C 2.83 g/m*3 1.34 C 9 km/h
1144 14-02-2021 15:00:00 3.725 C 2.85 g/m*3 2.25 C 6.00833 km/h
1145 14-02-2021 16:00:00 3.175 C 3.3 g/m*3 3.18 C 3.86667 km/h
1146 14-02-2021 17:00:00 1.175 C 3.64 g/m*3 -0.4 C 5.33333 km/h
1147 14-02-2021 18:00:00 -0.13333 C 3.57 g/m*3 -0.13 C 4.53333 km/h
1148 14-02-2021 19:00:00 -0.38333 C 3.57 g/m*3 -0.38 C 4.66667 km/h
1149 14-02-2021 20:00:00 -0.825 C 3.43 g/m*3 -0.83 C 4.66667 km/h
1150 14-02-2021 21:00:00 -1.56667 C 3.4 g/m*3 -1.57 C 3.73333 km/h
Sensor: Nr:Datum:Temp:Abs-Feuchte:Windchill:Wind:
Aussen-T/F 1151 14-02-2021 22:00:00 -1.86667 C 3.37 g/m*3 -1.87 C 3.06667 km/h
1152 14-02-2021 23:00:00 -1.95833 C 3.15 g/m*3 -1.96 C 3.6 km/h
1153 15-02-2021 00:00:00 -1.79167 C 3.05 g/m*3 -1.79 C 4 km/h
1154 15-02-2021 01:00:00 -2.36667 C 3 g/m*3 -2.37 C 3.6 km/h
1155 15-02-2021 02:00:00 -2.40833 C 2.99 g/m*3 -2.41 C 4 km/h
1156 15-02-2021 03:00:00 -1.96667 C 2.9 g/m*3 -3.93 C 5.225 km/h
1157 15-02-2021 04:00:00 -0.44167 C 2.82 g/m*3 -4.07 C 10.88333 km/h
1158 15-02-2021 05:00:00 -0.39167 C 2.84 g/m*3 -2.65 C 6.43333 km/h
1159 15-02-2021 06:00:00 -0.43333 C 2.92 g/m*3 -0.43 C 3.74167 km/h
1160 15-02-2021 07:00:00 -0.325 C 2.96 g/m*3 -0.33 C 2.80833 km/h
1161 15-02-2021 08:00:00 -0.15833 C 3.05 g/m*3 -0.16 C 2.80833 km/h
1162 15-02-2021 09:00:00 0.475 C 3.12 g/m*3 0.48 C 3.35 km/h
1163 15-02-2021 10:00:00 1.45 C 3.28 g/m*3 1.45 C 2.26667 km/h
1164 15-02-2021 11:00:00 2.13333 C 3.45 g/m*3 2.13 C 3.06667 km/h
1165 15-02-2021 12:00:00 1.88333 C 4.27 g/m*3 1.88 C 2.66667 km/h
1166 15-02-2021 13:00:00 1.75 C 4.81 g/m*3 1.75 C 0.26667 km/h
1167 15-02-2021 14:00:00 1.825 C 5.01 g/m*3 1.83 C 1.06667 km/h
1168 15-02-2021 15:00:00 2.125 C 5.21 g/m*3 2.13 C 0.4 km/h
1169 15-02-2021 16:00:00 2.25 C 5.26 g/m*3 2.25 C 0.4 km/h
1170 15-02-2021 17:00:00 2.05 C 5.2 g/m*3 2.05 C 1.46667 km/h
1171 15-02-2021 18:00:00 1.80833 C 5.16 g/m*3 1.81 C 1.06667 km/h
1172 15-02-2021 19:00:00 1.75833 C 5.17 g/m*3 1.76 C 0 km/h
1173 15-02-2021 20:00:00 1.80833 C 5.21 g/m*3 1.81 C 0.13333 km/h
1174 15-02-2021 21:00:00 1.99167 C 5.3 g/m*3 1.99 C 0.53333 km/h
1175 15-02-2021 22:00:00 2.94167 C 5.69 g/m*3 2.94 C 3.20833 km/h
Sensor: Nr:Datum:Temp:Abs-Feuchte:Windchill:Wind:
Aussen-T/F 1176 15-02-2021 23:00:00 4 C 6.1 g/m*3 1.73 C 8.86667 km/h
1177 16-02-2021 00:00:00 4.13333 C 6.09 g/m*3 2.54 C 6.575 km/h
1178 16-02-2021 01:00:00 4.03333 C 6.05 g/m*3 4.03 C 2 km/h
1179 16-02-2021 02:00:00 4.075 C 6.11 g/m*3 4.08 C 2.93333 km/h
1180 16-02-2021 03:00:00 4.01667 C 6.11 g/m*3 4.02 C 2.93333 km/h
1181 16-02-2021 04:00:00 3.95 C 6.08 g/m*3 3.95 C 0.66667 km/h
1182 16-02-2021 05:00:00 3.94167 C 6.08 g/m*3 3.94 C 0 km/h
1183 16-02-2021 06:00:00 3.78333 C 6.02 g/m*3 3.78 C 0 km/h
1184 16-02-2021 07:00:00 3.34167 C 5.84 g/m*3 3.34 C 0 km/h
1185 16-02-2021 08:00:00 3.00833 C 5.73 g/m*3 3.01 C 0.53333 km/h
1186 16-02-2021 09:00:00 3.99167 C 6.16 g/m*3 3.99 C 0 km/h
1187 16-02-2021 10:00:00 5.025 C 6.6 g/m*3 5.03 C 0 km/h
1188 16-02-2021 11:00:00 6.3 C 7.18 g/m*3 6.3 C 0.13333 km/h
1189 16-02-2021 12:00:00 7.41667 C 7.69 g/m*3 7.42 C 0 km/h
1190 16-02-2021 13:00:00 8.89167 C 8.3 g/m*3 8.89 C 0.53333 km/h
1191 16-02-2021 14:00:00 9.775 C 8.56 g/m*3 9.78 C 0.93333 km/h
1192 16-02-2021 15:00:00 9.96667 C 8.23 g/m*3 9.97 C 3.2 km/h
1193 16-02-2021 16:00:00 8.75833 C 7.45 g/m*3 8.76 C 3.73333 km/h
1194 16-02-2021 17:00:00 6.99167 C 6.91 g/m*3 6.13 C 5.61667 km/h
1195 16-02-2021 18:00:00 5.89167 C 6.53 g/m*3 5.89 C 4.94167 km/h
1196 16-02-2021 19:00:00 5.4 C 6.45 g/m*3 4.46 C 5.20833 km/h
1197 16-02-2021 20:00:00 5.08333 C 6.38 g/m*3 5.08 C 3.73333 km/h
1198 16-02-2021 21:00:00 5.16667 C 6.47 g/m*3 5.17 C 1.6 km/h
1199 16-02-2021 22:00:00 5.75 C 6.78 g/m*3 5.75 C 1.86667 km/h
1200 16-02-2021 23:00:00 6.85 C 7.37 g/m*3 5.8 C 6.15833 km/h
Sensor: Nr:Datum:Temp:Abs-Feuchte:Windchill:Wind:
Aussen-T/F 1201 17-02-2021 00:00:00 7.325 C 7.52 g/m*3 5.13 C 11.68333 km/h
1202 17-02-2021 01:00:00 6.15 C 6.86 g/m*3 5.36 C 5.08333 km/h
1203 17-02-2021 02:00:00 6.31667 C 7.09 g/m*3 4.84 C 7.39167 km/h
1204 17-02-2021 03:00:00 6.55833 C 7.12 g/m*3 6.56 C 4.675 km/h
1205 17-02-2021 04:00:00 5.275 C 6.54 g/m*3 5.28 C 4.8 km/h
1206 17-02-2021 05:00:00 5.35833 C 6.67 g/m*3 4.41 C 5.20833 km/h
1207 17-02-2021 06:00:00 5.35 C 6.67 g/m*3 5.35 C 4.14167 km/h
1208 17-02-2021 07:00:00 4.86667 C 6.47 g/m*3 4.87 C 3.46667 km/h
1209 17-02-2021 08:00:00 5.575 C 6.82 g/m*3 4.66 C 5.20833 km/h
1210 17-02-2021 09:00:00 7.05 C 7.44 g/m*3 5.56 C 7.91667 km/h
1211 17-02-2021 10:00:00 8.7 C 7.84 g/m*3 6.6 C 12.89167 km/h
1212 17-02-2021 11:00:00 9.71667 C 7.9 g/m*3 7.71 C 13.83333 km/h
1213 17-02-2021 12:00:00 10.4 C 7.99 g/m*3 8.9 C 11.3 km/h
1214 17-02-2021 13:00:00 10.65 C 7.88 g/m*3 9.23 C 11.15833 km/h
1215 17-02-2021 14:00:00 10.85833 C 8.03 g/m*3 9.48 C 11.15833 km/h
1216 17-02-2021 15:00:00 11.06667 C 8.01 g/m*3 11.07 C 8.6 km/h
1217 17-02-2021 16:00:00 10.81667 C 8.09 g/m*3 10.15 C 7.1 km/h
1218 17-02-2021 17:00:00 9.55833 C 7.6 g/m*3 9.07 C 5.60833 km/h
1219 17-02-2021 18:00:00 7.375 C 7.1 g/m*3 7.38 C 4.93333 km/h
1220 17-02-2021 19:00:00 6.75833 C 7.02 g/m*3 6.76 C 3.73333 km/h
1221 17-02-2021 20:00:00 5.89167 C 6.63 g/m*3 5.89 C 1.06667 km/h
1222 17-02-2021 21:00:00 4.425 C 6.09 g/m*3 4.43 C 1.86667 km/h
1223 17-02-2021 22:00:00 3.29167 C 5.7 g/m*3 3.29 C 0.26667 km/h
1224 17-02-2021 23:00:00 2.375 C 5.39 g/m*3 2.38 C 0 km/h
1225 18-02-2021 00:00:00 1.64167 C 5.15 g/m*3 1.64 C 0 km/h
Sensor: Nr:Datum:Temp:Abs-Feuchte:Windchill:Wind:
Aussen-T/F 1226 18-02-2021 01:00:00 1.08333 C 4.96 g/m*3 1.08 C 0.13333 km/h
1227 18-02-2021 02:00:00 0.6 C 4.82 g/m*3 0.6 C 0 km/h
1228 18-02-2021 03:00:00 0.08333 C 4.67 g/m*3 0.08 C 0 km/h
1229 18-02-2021 04:00:00 -0.01667 C 4.65 g/m*3 -0.02 C 0 km/h
1230 18-02-2021 05:00:00 -0.26667 C 4.57 g/m*3 -0.27 C 0 km/h
1231 18-02-2021 06:00:00 -0.46667 C 4.5 g/m*3 -0.47 C 0 km/h
1232 18-02-2021 07:00:00 -0.31667 C 4.56 g/m*3 -0.32 C 0 km/h
1233 18-02-2021 08:00:00 0.30833 C 4.8 g/m*3 0.31 C 0.4 km/h
1234 18-02-2021 09:00:00 0.81667 C 4.97 g/m*3 0.82 C 0.26667 km/h
1235 18-02-2021 10:00:00 2.075 C 5.42 g/m*3 2.08 C 1.2 km/h
1236 18-02-2021 11:00:00 3.725 C 6.09 g/m*3 3.73 C 0.53333 km/h
1237 18-02-2021 12:00:00 5.55 C 6.9 g/m*3 5.55 C 0.13333 km/h
1238 18-02-2021 13:00:00 7.475 C 7.57 g/m*3 7.48 C 1.33333 km/h
1239 18-02-2021 14:00:00 8.58333 C 7.12 g/m*3 8.58 C 4.8 km/h
1240 18-02-2021 15:00:00 8.125 C 7.08 g/m*3 8.13 C 0.66667 km/h
1241 18-02-2021 16:00:00 8.48333 C 7.39 g/m*3 8.48 C 3.88333 km/h
1242 18-02-2021 17:00:00 8.25833 C 7.14 g/m*3 8.26 C 2.66667 km/h
1243 18-02-2021 18:00:00 6.88333 C 6.88 g/m*3 6.88 C 3.2 km/h
1244 18-02-2021 19:00:00 6.91667 C 6.94 g/m*3 6.92 C 4 km/h
1245 18-02-2021 20:00:00 7.375 C 7.13 g/m*3 7.38 C 3.06667 km/h
1246 18-02-2021 21:00:00 8.15 C 7.79 g/m*3 8.15 C 4.41667 km/h
1247 18-02-2021 22:00:00 8.15833 C 7.8 g/m*3 6.52 C 9.51667 km/h
1248 18-02-2021 23:00:00 6.80833 C 6.93 g/m*3 5.41 C 7.375 km/h
1249 19-02-2021 00:00:00 5.29167 C 6.31 g/m*3 3.23 C 9 km/h
1250 19-02-2021 01:00:00 5.11667 C 6.18 g/m*3 3.19 C 8.33333 km/h
Sensor: Nr:Datum:Temp:Abs-Feuchte:Windchill:Wind:
Aussen-T/F 1251 19-02-2021 02:00:00 4.01667 C 5.85 g/m*3 2.88 C 5.20833 km/h
1252 19-02-2021 03:00:00 3.65833 C 5.81 g/m*3 2.48 C 5.20833 km/h
1253 19-02-2021 04:00:00 3.54167 C 5.82 g/m*3 2.08 C 5.9 km/h
1254 19-02-2021 05:00:00 4.125 C 6.01 g/m*3 2.75 C 5.90833 km/h
1255 19-02-2021 06:00:00 3.25833 C 5.65 g/m*3 3.26 C 2 km/h
1256 19-02-2021 07:00:00 3.65 C 5.9 g/m*3 3.65 C 1.33333 km/h
1257 19-02-2021 08:00:00 4.2 C 6.15 g/m*3 4.2 C 1.73333 km/h
1258 19-02-2021 09:00:00 5.23333 C 6.54 g/m*3 5.23 C 0.53333 km/h
1259 19-02-2021 10:00:00 6.275 C 6.86 g/m*3 6.28 C 1.46667 km/h
1260 19-02-2021 11:00:00 7.65 C 7.21 g/m*3 7.65 C 0.53333 km/h
1261 19-02-2021 12:00:00 9 C 7.52 g/m*3 9 C 0.53333 km/h
1262 19-02-2021 13:00:00 10.01667 C 7.63 g/m*3 10.02 C 0.4 km/h
1263 19-02-2021 14:00:00 11.09167 C 7.79 g/m*3 11.09 C 3.08333 km/h
1264 19-02-2021 15:00:00 11.80833 C 7.56 g/m*3 11.81 C 6.99167 km/h
1265 19-02-2021 16:00:00 11.85 C 7.51 g/m*3 11.85 C 6.30833 km/h
1266 19-02-2021 17:00:00 10.28333 C 7.34 g/m*3 10.28 C 4.66667 km/h
1267 19-02-2021 18:00:00 7.3 C 6.76 g/m*3 6.37 C 6 km/h
1268 19-02-2021 19:00:00 6.275 C 6.64 g/m*3 6.28 C 4.26667 km/h
1269 19-02-2021 20:00:00 5.39167 C 6.35 g/m*3 5.39 C 0.8 km/h
1270 19-02-2021 21:00:00 4.175 C 5.96 g/m*3 4.18 C 0 km/h
1271 19-02-2021 22:00:00 3.71667 C 5.86 g/m*3 3.72 C 0.26667 km/h
1272 19-02-2021 23:00:00 3.19167 C 5.69 g/m*3 3.19 C 0 km/h
1273 20-02-2021 00:00:00 2.83333 C 5.59 g/m*3 2.83 C 0 km/h
1274 20-02-2021 01:00:00 2.48333 C 5.47 g/m*3 2.48 C 0 km/h
1275 20-02-2021 02:00:00 2.21667 C 5.39 g/m*3 2.22 C 0 km/h
Sensor: Nr:Datum:Temp:Abs-Feuchte:Windchill:Wind:
Aussen-T/F 1276 20-02-2021 03:00:00 2.125 C 5.38 g/m*3 2.13 C 0 km/h
1277 20-02-2021 04:00:00 1.58333 C 5.19 g/m*3 1.58 C 0 km/h
1278 20-02-2021 05:00:00 1.20833 C 5.05 g/m*3 1.21 C 0 km/h
1279 20-02-2021 06:00:00 0.85 C 4.93 g/m*3 0.85 C 0.26667 km/h
1280 20-02-2021 07:00:00 0.8 C 4.92 g/m*3 0.8 C 0.13333 km/h
1281 20-02-2021 08:00:00 1.25833 C 5.12 g/m*3 1.26 C 0 km/h
1282 20-02-2021 09:00:00 1.89167 C 5.35 g/m*3 1.89 C 0 km/h
1283 20-02-2021 10:00:00 3.41667 C 5.95 g/m*3 3.42 C 2 km/h
1284 20-02-2021 11:00:00 8.10833 C 8.16 g/m*3 8.11 C 3.2 km/h
1285 20-02-2021 12:00:00 11.60833 C 9.07 g/m*3 11.61 C 7.51667 km/h
1286 20-02-2021 13:00:00 14.96667 C 8.64 g/m*3 14.97 C 7.25 km/h
1287 20-02-2021 14:00:00 16.40833 C 8.6 g/m*3 16.41 C 6.83333 km/h
1288 20-02-2021 15:00:00 16.55833 C 8.67 g/m*3 16.56 C 3.75 km/h
1289 20-02-2021 16:00:00 16.01667 C 8.98 g/m*3 16.02 C 2.4 km/h
1290 20-02-2021 17:00:00 14.09167 C 9.02 g/m*3 14.09 C 4.13333 km/h
1291 20-02-2021 18:00:00 10.94167 C 8.29 g/m*3 10.52 C 6.14167 km/h
1292 20-02-2021 19:00:00 9.39167 C 7.94 g/m*3 8.7 C 6.275 km/h
1293 20-02-2021 20:00:00 8.46667 C 7.67 g/m*3 7.67 C 6.14167 km/h
1294 20-02-2021 21:00:00 7.675 C 7.36 g/m*3 7.68 C 3.86667 km/h
1295 20-02-2021 22:00:00 6.575 C 6.91 g/m*3 6.58 C 0.8 km/h
1296 20-02-2021 23:00:00 5.825 C 6.66 g/m*3 5.83 C 1.06667 km/h
1297 21-02-2021 00:00:00 4.53333 C 6.12 g/m*3 4.53 C 0 km/h
1298 21-02-2021 01:00:00 3.54167 C 5.81 g/m*3 3.54 C 0.53333 km/h
1299 21-02-2021 02:00:00 3.275 C 5.74 g/m*3 3.28 C 0 km/h
1300 21-02-2021 03:00:00 3.04167 C 5.66 g/m*3 3.04 C 0 km/h
Sensor: Nr:Datum:Temp:Abs-Feuchte:Windchill:Wind:
Aussen-T/F 1301 21-02-2021 04:00:00 2.325 C 5.42 g/m*3 2.33 C 0.26667 km/h
1302 21-02-2021 05:00:00 2.05 C 5.33 g/m*3 2.05 C 0.13333 km/h
1303 21-02-2021 06:00:00 1.70833 C 5.23 g/m*3 1.71 C 0.13333 km/h
1304 21-02-2021 07:00:00 1.19167 C 5.05 g/m*3 1.19 C 0.13333 km/h
1305 21-02-2021 08:00:00 1.21667 C 5.06 g/m*3 1.22 C 0.13333 km/h
1306 21-02-2021 09:00:00 2.01667 C 5.38 g/m*3 2.02 C 0.53333 km/h
1307 21-02-2021 10:00:00 3.925 C 6.15 g/m*3 3.93 C 0.8 km/h
1308 21-02-2021 11:00:00 7.24167 C 7.71 g/m*3 7.24 C 1.06667 km/h
1309 21-02-2021 12:00:00 11.425 C 8.78 g/m*3 11.43 C 4.14167 km/h
1310 21-02-2021 13:00:00 15.85 C 7.97 g/m*3 15.85 C 6.31667 km/h
1311 21-02-2021 14:00:00 17.91667 C 7.46 g/m*3 17.92 C 5.76667 km/h
1312 21-02-2021 15:00:00 17.48333 C 7.46 g/m*3 17.48 C 4.55 km/h
1313 21-02-2021 16:00:00 16.59167 C 7.66 g/m*3 16.59 C 5.06667 km/h
1314 21-02-2021 17:00:00 15.05833 C 7.71 g/m*3 15.06 C 6.68333 km/h
1315 21-02-2021 18:00:00 11.95833 C 7.5 g/m*3 11.96 C 8.21667 km/h
1316 21-02-2021 19:00:00 11.75833 C 7.57 g/m*3 11.76 C 9.425 km/h
1317 21-02-2021 20:00:00 10.83333 C 7.4 g/m*3 10.26 C 6.69167 km/h
1318 21-02-2021 21:00:00 8.63333 C 6.85 g/m*3 8.63 C 1.46667 km/h
1319 21-02-2021 22:00:00 6.55833 C 6.45 g/m*3 6.56 C 0 km/h
1320 21-02-2021 23:00:00 5.4 C 6.19 g/m*3 5.4 C 0 km/h
1321 22-02-2021 00:00:00 4.18333 C 5.85 g/m*3 4.18 C 0 km/h
1322 22-02-2021 01:00:00 3.50833 C 5.7 g/m*3 3.51 C 0.53333 km/h
1323 22-02-2021 02:00:00 2.675 C 5.41 g/m*3 2.68 C 0 km/h
1324 22-02-2021 03:00:00 1.88333 C 5.18 g/m*3 1.88 C 0 km/h
1325 22-02-2021 04:00:00 1.40833 C 5.05 g/m*3 1.41 C 0.13333 km/h
Sensor: Nr:Datum:Temp:Abs-Feuchte:Windchill:Wind:
Aussen-T/F 1326 22-02-2021 05:00:00 1.43333 C 5.09 g/m*3 1.43 C 2.4 km/h
1327 22-02-2021 06:00:00 1.05833 C 4.96 g/m*3 1.06 C 0.13333 km/h
1328 22-02-2021 07:00:00 1.25 C 5.07 g/m*3 1.25 C 1.06667 km/h
1329 22-02-2021 08:00:00 1.96667 C 5.32 g/m*3 1.97 C 1.33333 km/h
1330 22-02-2021 09:00:00 3.15833 C 5.79 g/m*3 3.16 C 0 km/h
1331 22-02-2021 10:00:00 4.85833 C 6.52 g/m*3 4.86 C 0.13333 km/h
1332 22-02-2021 11:00:00 6.3 C 6.93 g/m*3 6.3 C 0.93333 km/h
1333 22-02-2021 12:00:00 7.90833 C 7.18 g/m*3 7.91 C 1.2 km/h
1334 22-02-2021 13:00:00 9.33333 C 7.5 g/m*3 9.33 C 1.73333 km/h
1335 22-02-2021 14:00:00 11.34167 C 8.03 g/m*3 11.34 C 0 km/h
1336 22-02-2021 15:00:00 13.69167 C 8.28 g/m*3 13.69 C 0.8 km/h
1337 22-02-2021 16:00:00 14.44167 C 8.72 g/m*3 14.44 C 0 km/h
1338 22-02-2021 17:00:00 12.63333 C 8.37 g/m*3 12.63 C 2.93333 km/h
1339 22-02-2021 18:00:00 11.19167 C 8.1 g/m*3 11.19 C 1.6 km/h
1340 22-02-2021 19:00:00 10.50833 C 7.93 g/m*3 10.51 C 0 km/h
1341 22-02-2021 20:00:00 10.175 C 7.9 g/m*3 10.18 C 0 km/h
1342 22-02-2021 21:00:00 9.13333 C 7.5 g/m*3 9.13 C 0 km/h
1343 22-02-2021 22:00:00 7.86667 C 7.21 g/m*3 7.87 C 0 km/h
1344 22-02-2021 23:00:00 7.70833 C 7.3 g/m*3 7.71 C 0 km/h
1345 23-02-2021 00:00:00 7.375 C 7.19 g/m*3 7.38 C 0 km/h
1346 23-02-2021 01:00:00 7.2 C 7.18 g/m*3 7.2 C 0 km/h
1347 23-02-2021 02:00:00 7.26667 C 7.25 g/m*3 7.27 C 0 km/h
1348 23-02-2021 03:00:00 7.38333 C 7.32 g/m*3 7.38 C 0 km/h
1349 23-02-2021 04:00:00 7.36667 C 7.35 g/m*3 7.37 C 0 km/h
1350 23-02-2021 05:00:00 7.16667 C 7.24 g/m*3 7.17 C 0 km/h
Sensor: Nr:Datum:Temp:Abs-Feuchte:Windchill:Wind:
Aussen-T/F 1351 23-02-2021 06:00:00 6.33333 C 6.89 g/m*3 6.33 C 0 km/h
1352 23-02-2021 07:00:00 6.83333 C 7.27 g/m*3 6.83 C 1.2 km/h
1353 23-02-2021 08:00:00 7.975 C 7.78 g/m*3 7.98 C 1.73333 km/h
1354 23-02-2021 09:00:00 8.91667 C 8.13 g/m*3 8.92 C 0.13333 km/h
1355 23-02-2021 10:00:00 10.43333 C 8.69 g/m*3 10.43 C 0.66667 km/h
1356 23-02-2021 11:00:00 13.50833 C 9.58 g/m*3 13.51 C 1.2 km/h
1357 23-02-2021 12:00:00 16.23333 C 10.08 g/m*3 16.23 C 5.23333 km/h
1358 23-02-2021 13:00:00 18.51667 C 9.73 g/m*3 18.52 C 10.63333 km/h
1359 23-02-2021 14:00:00 19.725 C 9.76 g/m*3 19.73 C 6.43333 km/h
1360 23-02-2021 15:00:00 19.70833 C 9.71 g/m*3 19.71 C 8.19167 km/h
1361 23-02-2021 16:00:00 19.66667 C 9.58 g/m*3 19.67 C 4.26667 km/h
1362 23-02-2021 17:00:00 18.21667 C 9.46 g/m*3 18.22 C 5.88333 km/h
1363 23-02-2021 18:00:00 14.58333 C 9.24 g/m*3 14.58 C 6.4 km/h
1364 23-02-2021 19:00:00 12.85 C 9.03 g/m*3 12.85 C 4.66667 km/h
1365 23-02-2021 20:00:00 11.35 C 8.65 g/m*3 11.35 C 1.06667 km/h
1366 23-02-2021 21:00:00 10.10833 C 8.33 g/m*3 10.11 C 0 km/h
1367 23-02-2021 22:00:00 9.25 C 8.03 g/m*3 9.25 C 0 km/h
1368 23-02-2021 23:00:00 8.29167 C 7.7 g/m*3 8.29 C 0.4 km/h
1369 24-02-2021 00:00:00 7.91667 C 7.65 g/m*3 7.92 C 0.53333 km/h
1370 24-02-2021 01:00:00 7.1 C 7.27 g/m*3 7.1 C 0.13333 km/h
1371 24-02-2021 02:00:00 6.45833 C 7.02 g/m*3 6.46 C 0 km/h
1372 24-02-2021 03:00:00 5.96667 C 6.86 g/m*3 5.97 C 0 km/h
1373 24-02-2021 04:00:00 5.5 C 6.67 g/m*3 5.5 C 0 km/h
1374 24-02-2021 05:00:00 5.11667 C 6.51 g/m*3 5.12 C 0 km/h
1375 24-02-2021 06:00:00 4.65833 C 6.34 g/m*3 4.66 C 0 km/h
Sensor: Nr:Datum:Temp:Abs-Feuchte:Windchill:Wind:
Aussen-T/F 1376 24-02-2021 07:00:00 4.79167 C 6.43 g/m*3 4.79 C 0.4 km/h
1377 24-02-2021 08:00:00 5.55 C 6.8 g/m*3 5.55 C 0.4 km/h
1378 24-02-2021 09:00:00 6.575 C 7.31 g/m*3 6.58 C 0.26667 km/h
1379 24-02-2021 10:00:00 7.44167 C 7.73 g/m*3 7.44 C 0 km/h
1380 24-02-2021 11:00:00 9.74167 C 8.97 g/m*3 9.74 C 0 km/h
1381 24-02-2021 12:00:00 13.26667 C 10.67 g/m*3 13.27 C 0 km/h
1382 24-02-2021 13:00:00 17.18333 C 10.55 g/m*3 17.18 C 6.025 km/h
1383 24-02-2021 14:00:00 18.73333 C 10.36 g/m*3 18.73 C 4.28333 km/h
1384 24-02-2021 15:00:00 18.79167 C 10.41 g/m*3 18.79 C 1.475 km/h
1385 24-02-2021 16:00:00 18.89167 C 10.34 g/m*3 18.89 C 0.13333 km/h
1386 24-02-2021 17:00:00 16.73333 C 9.86 g/m*3 16.73 C 0.93333 km/h
1387 24-02-2021 18:00:00 13.725 C 9.11 g/m*3 13.73 C 0.26667 km/h
1388 24-02-2021 19:00:00 11.96667 C 8.69 g/m*3 11.97 C 0 km/h
1389 24-02-2021 20:00:00 10.1 C 8.15 g/m*3 10.1 C 0 km/h
1390 24-02-2021 21:00:00 8.825 C 7.84 g/m*3 8.82 C 0 km/h
1391 24-02-2021 22:00:00 8.05833 C 7.62 g/m*3 8.06 C 0 km/h
1392 24-02-2021 23:00:00 7.33333 C 7.36 g/m*3 7.33 C 0 km/h
1393 25-02-2021 00:00:00 6.60833 C 7.09 g/m*3 6.61 C 0.13333 km/h
1394 25-02-2021 01:00:00 6.15833 C 6.92 g/m*3 6.16 C 0.53333 km/h
1395 25-02-2021 02:00:00 5.61667 C 6.72 g/m*3 5.62 C 0 km/h
1396 25-02-2021 03:00:00 5.19167 C 6.54 g/m*3 5.19 C 0 km/h
1397 25-02-2021 04:00:00 4.475 C 6.23 g/m*3 4.47 C 0 km/h
1398 25-02-2021 05:00:00 4.175 C 6.14 g/m*3 4.18 C 0.13333 km/h
1399 25-02-2021 06:00:00 3.76667 C 6 g/m*3 3.77 C 0 km/h
1400 25-02-2021 07:00:00 3.33333 C 5.84 g/m*3 3.33 C 0 km/h
Sensor: Nr:Datum:Temp:Abs-Feuchte:Windchill:Wind:
Aussen-T/F 1401 25-02-2021 08:00:00 3.74167 C 6 g/m*3 3.74 C 0 km/h
1402 25-02-2021 09:00:00 4.56667 C 6.39 g/m*3 4.57 C 0 km/h
1403 25-02-2021 10:00:00 6.4 C 7.23 g/m*3 6.4 C 0.4 km/h
1404 25-02-2021 11:00:00 9.25833 C 8.68 g/m*3 9.26 C 1.33333 km/h
1405 25-02-2021 12:00:00 13.89167 C 8.89 g/m*3 13.89 C 1.2 km/h
1406 25-02-2021 13:00:00 17.64167 C 8.88 g/m*3 17.64 C 1.73333 km/h
1407 25-02-2021 14:00:00 19.93333 C 8.88 g/m*3 19.93 C 2.53333 km/h
1408 25-02-2021 15:00:00 18.975 C 8.53 g/m*3 18.98 C 5.475 km/h
1409 25-02-2021 16:00:00 18.51667 C 8.05 g/m*3 18.52 C 3.74167 km/h
1410 25-02-2021 17:00:00 15.69167 C 7.79 g/m*3 15.69 C 6.55 km/h
1411 25-02-2021 18:00:00 12.9 C 7.49 g/m*3 12.9 C 5.6 km/h
1412 25-02-2021 19:00:00 11.68333 C 7.31 g/m*3 11.68 C 2.13333 km/h
1413 25-02-2021 20:00:00 10.78333 C 7.36 g/m*3 10.78 C 0.8 km/h
1414 25-02-2021 21:00:00 10.03333 C 7.16 g/m*3 10.03 C 3.34167 km/h
1415 25-02-2021 22:00:00 8.75833 C 6.83 g/m*3 8.76 C 0.4 km/h
1416 25-02-2021 23:00:00 7.2 C 6.6 g/m*3 7.2 C 1.33333 km/h
1417 26-02-2021 00:00:00 6.60833 C 6.59 g/m*3 6.61 C 1.73333 km/h
1418 26-02-2021 01:00:00 6.425 C 6.64 g/m*3 6.43 C 2.53333 km/h
1419 26-02-2021 02:00:00 6.38333 C 6.67 g/m*3 6.38 C 0.8 km/h
1420 26-02-2021 03:00:00 7 C 6.9 g/m*3 7 C 0 km/h
1421 26-02-2021 04:00:00 7.225 C 6.94 g/m*3 7.23 C 0.13333 km/h
1422 26-02-2021 05:00:00 7.64167 C 7.1 g/m*3 7.64 C 3.075 km/h
1423 26-02-2021 06:00:00 8.03333 C 7.35 g/m*3 7.32 C 5.63333 km/h
1424 26-02-2021 07:00:00 8.38333 C 7.63 g/m*3 6.59 C 10.61667 km/h
1425 26-02-2021 08:00:00 7.8 C 7.36 g/m*3 6.38 C 8.19167 km/h
Sensor: Nr:Datum:Temp:Abs-Feuchte:Windchill:Wind:
Aussen-T/F 1426 26-02-2021 09:00:00 6.99167 C 7.01 g/m*3 5.56 C 7.64167 km/h
1427 26-02-2021 10:00:00 6.63333 C 6.97 g/m*3 6.63 C 2.26667 km/h
1428 26-02-2021 11:00:00 6.80833 C 7.11 g/m*3 6.81 C 3.88333 km/h
1429 26-02-2021 12:00:00 7.025 C 7.23 g/m*3 7.03 C 3.60833 km/h
1430 26-02-2021 13:00:00 7.50833 C 7.35 g/m*3 7.51 C 0.66667 km/h
1431 26-02-2021 14:00:00 8.44167 C 7.58 g/m*3 8.44 C 1.6 km/h
1432 26-02-2021 15:00:00 8.76667 C 7.71 g/m*3 8.77 C 0.8 km/h
1433 26-02-2021 16:00:00 9.29167 C 7.33 g/m*3 9.29 C 4.80833 km/h
1434 26-02-2021 17:00:00 9.35 C 6.69 g/m*3 8.99 C 5.09167 km/h
1435 26-02-2021 18:00:00 7.41667 C 6.16 g/m*3 7.42 C 3.20833 km/h
1436 26-02-2021 19:00:00 6.50833 C 6.22 g/m*3 6.51 C 3.06667 km/h
1437 26-02-2021 20:00:00 6.225 C 6.4 g/m*3 6.23 C 1.2 km/h
1438 26-02-2021 21:00:00 5.475 C 6.12 g/m*3 5.48 C 3.46667 km/h
1439 26-02-2021 22:00:00 3.73333 C 5.6 g/m*3 3.73 C 1.33333 km/h
1440 26-02-2021 23:00:00 2.55833 C 5.28 g/m*3 2.56 C 0.13333 km/h
1441 27-02-2021 00:00:00 1.79167 C 5.1 g/m*3 1.79 C 0.13333 km/h
1442 27-02-2021 01:00:00 1.38333 C 5.01 g/m*3 1.38 C 0.13333 km/h
1443 27-02-2021 02:00:00 0.85833 C 4.83 g/m*3 0.86 C 0.13333 km/h
1444 27-02-2021 03:00:00 0.46667 C 4.74 g/m*3 0.47 C 0 km/h
1445 27-02-2021 04:00:00 0.04167 C 4.62 g/m*3 0.04 C 0.13333 km/h
1446 27-02-2021 05:00:00 -0.175 C 4.55 g/m*3 -0.18 C 0 km/h
1447 27-02-2021 06:00:00 -0.40833 C 4.47 g/m*3 -0.41 C 0 km/h
1448 27-02-2021 07:00:00 -0.19167 C 4.57 g/m*3 -0.19 C 0.26667 km/h
1449 27-02-2021 08:00:00 1.25 C 5.08 g/m*3 1.25 C 0.4 km/h
1450 27-02-2021 09:00:00 2.35833 C 5.48 g/m*3 2.36 C 0.53333 km/h
Sensor: Nr:Datum:Temp:Abs-Feuchte:Windchill:Wind:
Aussen-T/F 1451 27-02-2021 10:00:00 3.1 C 5.75 g/m*3 3.1 C 0.66667 km/h
1452 27-02-2021 11:00:00 4.31667 C 6.17 g/m*3 4.32 C 1.73333 km/h
1453 27-02-2021 12:00:00 6.15 C 6.54 g/m*3 6.15 C 1.86667 km/h
1454 27-02-2021 13:00:00 8.29167 C 6.55 g/m*3 7.02 C 7.90833 km/h
1455 27-02-2021 14:00:00 9.35833 C 6.43 g/m*3 8.92 C 5.35833 km/h
1456 27-02-2021 15:00:00 9.85833 C 6.34 g/m*3 9.38 C 5.74167 km/h
1457 27-02-2021 16:00:00 10.59167 C 6.27 g/m*3 10.01 C 6.58333 km/h
1458 27-02-2021 17:00:00 10.86667 C 6.57 g/m*3 10.87 C 2.93333 km/h
1459 27-02-2021 18:00:00 7.25 C 6.22 g/m*3 7.25 C 4.4 km/h
1460 27-02-2021 19:00:00 5.225 C 5.91 g/m*3 5.23 C 4.93333 km/h
1461 27-02-2021 20:00:00 4.625 C 5.9 g/m*3 4.63 C 3.88333 km/h
1462 27-02-2021 21:00:00 5.84167 C 6.13 g/m*3 5.84 C 3.475 km/h
1463 27-02-2021 22:00:00 5.89167 C 6.03 g/m*3 4.78 C 5.9 km/h
1464 27-02-2021 23:00:00 5.8 C 5.94 g/m*3 5.8 C 2.66667 km/h
1465 28-02-2021 00:00:00 5.825 C 5.86 g/m*3 5.83 C 2.95833 km/h
1466 28-02-2021 01:00:00 5.825 C 5.76 g/m*3 4.94 C 5.225 km/h
1467 28-02-2021 02:00:00 5.68333 C 5.69 g/m*3 5.68 C 3.88333 km/h
1468 28-02-2021 03:00:00 5.43333 C 5.48 g/m*3 4.54 C 5.09167 km/h
1469 28-02-2021 04:00:00 5.06667 C 5.42 g/m*3 5.07 C 1.33333 km/h
1470 28-02-2021 05:00:00 4.75833 C 5.39 g/m*3 4.76 C 2.13333 km/h
1471 28-02-2021 06:00:00 3.28333 C 5.08 g/m*3 3.28 C 0.66667 km/h
1472 28-02-2021 07:00:00 1.58333 C 4.75 g/m*3 1.58 C 0.26667 km/h
1473 28-02-2021 08:00:00 1.09167 C 4.76 g/m*3 1.09 C 0.53333 km/h
1474 28-02-2021 09:00:00 1.65833 C 4.99 g/m*3 1.66 C 1.73333 km/h
1475 28-02-2021 10:00:00 3.55 C 5.45 g/m*3 3.55 C 3.73333 km/h
Sensor: Nr:Datum:Temp:Abs-Feuchte:Windchill:Wind:
Aussen-T/F 1476 28-02-2021 11:00:00 6.55833 C 5.63 g/m*3 5.77 C 5.23333 km/h
1477 28-02-2021 12:00:00 8.34167 C 5.66 g/m*3 8.34 C 4.54167 km/h
1478 28-02-2021 13:00:00 9.875 C 5.78 g/m*3 9.88 C 3.6 km/h
1479 28-02-2021 14:00:00 11.30833 C 5.49 g/m*3 11.31 C 10.725 km/h
1480 28-02-2021 15:00:00 11.63333 C 5.25 g/m*3 11.63 C 9.54167 km/h
1481 28-02-2021 16:00:00 12.35 C 5.26 g/m*3 12.35 C 6.575 km/h
1482 28-02-2021 17:00:00 12.00833 C 5.87 g/m*3 12.01 C 2.275 km/h
1483 28-02-2021 18:00:00 7.725 C 5.58 g/m*3 6.78 C 6.26667 km/h
1484 28-02-2021 19:00:00 5.575 C 5.43 g/m*3 4.38 C 6.01667 km/h
1485 28-02-2021 20:00:00 4.425 C 5.37 g/m*3 4.43 C 4.26667 km/h
1486 28-02-2021 21:00:00 3.14167 C 5.17 g/m*3 3.14 C 0 km/h
1487 28-02-2021 22:00:00 2.275 C 5.03 g/m*3 2.28 C 0 km/h
1488 28-02-2021 23:00:00 1.24167 C 4.78 g/m*3 1.24 C 0 km/h
1489 01-03-2021 00:00:00 0.76667 C 4.7 g/m*3 0.77 C 0 km/h
1490 01-03-2021 01:00:00 0.1 C 4.53 g/m*3 0.1 C 0 km/h
1491 01-03-2021 02:00:00 -0.25833 C 4.46 g/m*3 -0.26 C 0 km/h
1492 01-03-2021 03:00:00 -0.55833 C 4.38 g/m*3 -0.56 C 0 km/h
1493 01-03-2021 04:00:00 -0.9 C 4.29 g/m*3 -0.9 C 0 km/h
1494 01-03-2021 05:00:00 -1.275 C 4.2 g/m*3 -1.27 C 0 km/h
1495 01-03-2021 06:00:00 -1.475 C 4.15 g/m*3 -1.48 C 0.13333 km/h
1496 01-03-2021 07:00:00 -1.71667 C 4.08 g/m*3 -1.72 C 0 km/h
1497 01-03-2021 08:00:00 -1.45 C 4.17 g/m*3 -1.45 C 0 km/h
1498 01-03-2021 09:00:00 -0.575 C 4.46 g/m*3 -0.57 C 0 km/h
1499 01-03-2021 10:00:00 1.31667 C 5.11 g/m*3 1.32 C 2 km/h
1500 01-03-2021 11:00:00 3.9 C 6 g/m*3 2.4 C 6.175 km/h
Sensor: Nr:Datum:Temp:Abs-Feuchte:Windchill:Wind:
Aussen-T/F 1501 01-03-2021 12:00:00 7 C 6.2 g/m*3 6.15 C 5.6 km/h
1502 01-03-2021 13:00:00 9.88333 C 6.3 g/m*3 9.4 C 5.75 km/h
1503 01-03-2021 14:00:00 11.93333 C 6.09 g/m*3 11.93 C 4.94167 km/h
1504 01-03-2021 15:00:00 12.71667 C 6.12 g/m*3 12.72 C 5.89167 km/h
1505 01-03-2021 16:00:00 13.74167 C 6.4 g/m*3 13.74 C 6.71667 km/h
1506 01-03-2021 17:00:00 13.53333 C 6.85 g/m*3 13.53 C 4.80833 km/h
1507 01-03-2021 18:00:00 9.18333 C 6.52 g/m*3 9.18 C 0 km/h
1508 01-03-2021 19:00:00 6.8 C 6.16 g/m*3 6.8 C 3.73333 km/h
1509 01-03-2021 20:00:00 5.60833 C 5.93 g/m*3 5.61 C 3.46667 km/h
1510 01-03-2021 21:00:00 5.14167 C 5.93 g/m*3 5.14 C 4.26667 km/h
1511 01-03-2021 22:00:00 4.50833 C 5.86 g/m*3 4.51 C 3.6 km/h
1512 01-03-2021 23:00:00 3.26667 C 5.48 g/m*3 3.27 C 0 km/h
1513 02-03-2021 00:00:00 2.14167 C 5.18 g/m*3 2.14 C 0 km/h
1514 02-03-2021 01:00:00 1.66667 C 5.08 g/m*3 1.67 C 0 km/h
1515 02-03-2021 02:00:00 1 C 4.88 g/m*3 1 C 0 km/h
1516 02-03-2021 03:00:00 0.325 C 4.66 g/m*3 0.33 C 0 km/h
1517 02-03-2021 04:00:00 0.025 C 4.61 g/m*3 0.03 C 0 km/h
1518 02-03-2021 05:00:00 -0.325 C 4.5 g/m*3 -0.33 C 0 km/h
1519 02-03-2021 06:00:00 -0.45833 C 4.46 g/m*3 -0.46 C 0 km/h
1520 02-03-2021 07:00:00 -0.58333 C 4.43 g/m*3 -0.58 C 0 km/h
1521 02-03-2021 08:00:00 -0.83333 C 4.35 g/m*3 -0.83 C 0 km/h
1522 02-03-2021 09:00:00 -0.08333 C 4.62 g/m*3 -0.08 C 0 km/h
1523 02-03-2021 10:00:00 1.625 C 5.23 g/m*3 1.63 C 0 km/h
1524 02-03-2021 11:00:00 5.225 C 6.69 g/m*3 5.23 C 0 km/h
1525 02-03-2021 12:00:00 8.925 C 7.96 g/m*3 8.93 C 0 km/h
Sensor: Nr:Datum:Temp:Abs-Feuchte:Windchill:Wind:
Aussen-T/F 1526 02-03-2021 13:00:00 13.59167 C 8.19 g/m*3 13.59 C 0 km/h
1527 02-03-2021 14:00:00 16.175 C 7.49 g/m*3 16.18 C 1.2 km/h
1528 02-03-2021 15:00:00 15.58333 C 7.25 g/m*3 15.58 C 2 km/h
1529 02-03-2021 16:00:00 15.725 C 7.56 g/m*3 15.73 C 1.86667 km/h
1530 02-03-2021 17:00:00 14.525 C 7.54 g/m*3 14.53 C 5.46667 km/h
1531 02-03-2021 18:00:00 10.81667 C 6.91 g/m*3 10.27 C 6.575 km/h
1532 02-03-2021 19:00:00 8.775 C 6.67 g/m*3 8.78 C 4.93333 km/h
1533 02-03-2021 20:00:00 7.50833 C 6.55 g/m*3 6.86 C 5.2 km/h
1534 02-03-2021 21:00:00 6.21667 C 6.24 g/m*3 6.22 C 1.86667 km/h
1535 02-03-2021 22:00:00 4.79167 C 5.91 g/m*3 4.79 C 0.53333 km/h
1536 02-03-2021 23:00:00 3.46667 C 5.52 g/m*3 3.47 C 0 km/h
1537 03-03-2021 00:00:00 2.61667 C 5.32 g/m*3 2.62 C 0.13333 km/h
1538 03-03-2021 01:00:00 2.05 C 5.19 g/m*3 2.05 C 0 km/h
1539 03-03-2021 02:00:00 1.41667 C 5 g/m*3 1.42 C 0 km/h
1540 03-03-2021 03:00:00 1.09167 C 4.91 g/m*3 1.09 C 0 km/h
1541 03-03-2021 04:00:00 1.24167 C 5.01 g/m*3 1.24 C 0 km/h
1542 03-03-2021 05:00:00 0.89167 C 4.89 g/m*3 0.89 C 0.53333 km/h
1543 03-03-2021 06:00:00 0.83333 C 4.88 g/m*3 0.83 C 0 km/h
1544 03-03-2021 07:00:00 0.75833 C 4.86 g/m*3 0.76 C 0 km/h
1545 03-03-2021 08:00:00 1.54167 C 5.17 g/m*3 1.54 C 0 km/h
1546 03-03-2021 09:00:00 2.4 C 5.47 g/m*3 2.4 C 0.4 km/h
1547 03-03-2021 10:00:00 3.43333 C 5.83 g/m*3 3.43 C 0 km/h
1548 03-03-2021 11:00:00 6.2 C 6.61 g/m*3 6.2 C 0 km/h
1549 03-03-2021 12:00:00 10.13333 C 7.19 g/m*3 10.13 C 0 km/h
1550 03-03-2021 13:00:00 13.675 C 7.58 g/m*3 13.68 C 0.8 km/h
Sensor: Nr:Datum:Temp:Abs-Feuchte:Windchill:Wind:
Aussen-T/F 1551 03-03-2021 14:00:00 15.6 C 7.58 g/m*3 15.6 C 1.075 km/h
1552 03-03-2021 15:00:00 16.20833 C 7.58 g/m*3 16.21 C 0 km/h
1553 03-03-2021 16:00:00 16.59167 C 7.9 g/m*3 16.59 C 0 km/h
1554 03-03-2021 17:00:00 14.38333 C 7.98 g/m*3 14.38 C 0 km/h
1555 03-03-2021 18:00:00 11.225 C 7.33 g/m*3 11.23 C 0 km/h
1556 03-03-2021 19:00:00 9.75 C 7.11 g/m*3 9.75 C 0 km/h
1557 03-03-2021 20:00:00 8.625 C 6.91 g/m*3 8.63 C 0 km/h
1558 03-03-2021 21:00:00 7.79167 C 6.8 g/m*3 7.79 C 0 km/h
1559 03-03-2021 22:00:00 7.88333 C 6.87 g/m*3 7.88 C 0 km/h
1560 03-03-2021 23:00:00 7.79167 C 6.88 g/m*3 7.79 C 0 km/h
1561 04-03-2021 00:00:00 7.225 C 6.59 g/m*3 7.23 C 0 km/h
1562 04-03-2021 01:00:00 6.10833 C 6.44 g/m*3 6.11 C 0 km/h
1563 04-03-2021 02:00:00 5.425 C 6.21 g/m*3 5.43 C 0 km/h
1564 04-03-2021 03:00:00 4.73333 C 6.04 g/m*3 4.73 C 0.8 km/h
1565 04-03-2021 04:00:00 4.40833 C 6 g/m*3 4.41 C 0 km/h
1566 04-03-2021 05:00:00 4.68333 C 6.18 g/m*3 4.68 C 0.8 km/h
1567 04-03-2021 06:00:00 4 C 5.85 g/m*3 4 C 0.13333 km/h
1568 04-03-2021 07:00:00 3.60833 C 5.79 g/m*3 3.61 C 0.13333 km/h
1569 04-03-2021 08:00:00 4.75 C 6.31 g/m*3 4.75 C 0.66667 km/h
1570 04-03-2021 09:00:00 6.15833 C 6.75 g/m*3 6.16 C 0.53333 km/h
1571 04-03-2021 10:00:00 8.56667 C 7.41 g/m*3 8.57 C 3.34167 km/h
1572 04-03-2021 11:00:00 9.725 C 7.67 g/m*3 9.73 C 3.08333 km/h
1573 04-03-2021 12:00:00 10.55833 C 8.01 g/m*3 9.6 C 8.325 km/h
1574 04-03-2021 13:00:00 11.13333 C 8.18 g/m*3 11.13 C 2.94167 km/h
1575 04-03-2021 14:00:00 11.23333 C 8.2 g/m*3 11.23 C 3.73333 km/h
Sensor: Nr:Datum:Temp:Abs-Feuchte:Windchill:Wind:
Aussen-T/F 1576 04-03-2021 15:00:00 9.975 C 8.13 g/m*3 9.37 C 6.3 km/h
1577 04-03-2021 16:00:00 8.74167 C 8 g/m*3 8.74 C 0 km/h
1578 04-03-2021 17:00:00 8 C 7.63 g/m*3 5.99 C 11.40833 km/h
1579 04-03-2021 18:00:00 6.575 C 6.98 g/m*3 5.07 C 7.65 km/h
1580 04-03-2021 19:00:00 5.2 C 6.4 g/m*3 3.73 C 6.70833 km/h
1581 04-03-2021 20:00:00 4.175 C 5.94 g/m*3 1.94 C 8.88333 km/h
1582 04-03-2021 21:00:00 4.06667 C 5.94 g/m*3 1.88 C 8.6 km/h
1583 04-03-2021 22:00:00 4.13333 C 5.97 g/m*3 2.58 C 6.425 km/h

Maximal/Minimal-Werte vom 29.12.2020 - 04.03.2021

Sensor Min Max Avg
Temp
(Aussen-T/F)
-9.6 °C
14-02-2021  07:20:00
20.3 °C
25-02-2021  14:30:00
3.46 °C
Abs-Feuchte
(Aussen-T/F)
2.08 g/m*3
10-02-2021  04:00:00
10.67 g/m*3
24-02-2021  12:00:00
5.61 g/m*3
Windchill
(Aussen-T/F)
-12.27 C
10-02-2021  09:00:00
19.93 C
25-02-2021  14:00:00
2.77 C

Die Daten stammen von einer Davis Vantage Pro 2 Wetter-Station und werden unter Linux mit der Software wview2wettercgi und aufbereitet. Alle Angaben erfolgen ohne Gewähr für ihre Vollständigkeit oder Richtigkeit.
Kontakt: Rainer Krienke krienke@uni-koblenz.de . Meine Webseiten an der Uni Koblenz oder privat.
Version: $Revision: 0.78 $